<?xml version="1.0" encoding="UTF-8" standalone="no" ?>
<gpx xmlns="http://www.topografix.com/GPX/1/1" xmlns:xsi="http://www.w3.org/2001/XMLSchema-instance" xsi:schemaLocation="http://www.topografix.com/GPX/1/1 http://www.topografix.com/GPX/1/1/gpx.xsd" version="1.1" creator="VisuGPX - https://www.visugpx.com">
  <metadata>
    <name>ASLPM marche Fontenay le Comte 26 octobre 2015</name>
    <desc><![CDATA[ASLPM marche Fontenay le Comte le 26 Oct 2015]]></desc>
  </metadata>
  <trk>
    <name><![CDATA[26/10/2015 09:10:00]]></name>
    <trkseg>
      <trkpt lat="46.46239" lon="-0.81082">
        <ele>7.4</ele>
        <time>2015-10-26T08:10:00Z</time>
      </trkpt>
      <trkpt lat="46.46241" lon="-0.81089">
        <ele>7.3</ele>
        <time>2015-10-26T08:10:01Z</time>
      </trkpt>
      <trkpt lat="46.46238" lon="-0.81081">
        <ele>7.4</ele>
        <time>2015-10-26T08:10:02Z</time>
      </trkpt>
      <trkpt lat="46.46205" lon="-0.81086">
        <ele>8</ele>
        <time>2015-10-26T08:10:05Z</time>
      </trkpt>
      <trkpt lat="46.4619" lon="-0.81103">
        <ele>7.8</ele>
        <time>2015-10-26T08:10:06Z</time>
      </trkpt>
      <trkpt lat="46.46183" lon="-0.81101">
        <ele>7.6</ele>
        <time>2015-10-26T08:10:07Z</time>
      </trkpt>
      <trkpt lat="46.46201" lon="-0.81112">
        <ele>8</ele>
        <time>2015-10-26T08:10:17Z</time>
      </trkpt>
      <trkpt lat="46.46191" lon="-0.81111">
        <ele>7.9</ele>
        <time>2015-10-26T08:10:21Z</time>
      </trkpt>
      <trkpt lat="46.46198" lon="-0.81101">
        <ele>8</ele>
        <time>2015-10-26T08:10:22Z</time>
      </trkpt>
      <trkpt lat="46.46186" lon="-0.81106">
        <ele>7.7</ele>
        <time>2015-10-26T08:10:23Z</time>
      </trkpt>
      <trkpt lat="46.46176" lon="-0.81128">
        <ele>7.3</ele>
        <time>2015-10-26T08:10:34Z</time>
      </trkpt>
      <trkpt lat="46.46171" lon="-0.81137">
        <ele>7.2</ele>
        <time>2015-10-26T08:10:37Z</time>
      </trkpt>
      <trkpt lat="46.46163" lon="-0.81156">
        <ele>6.9</ele>
        <time>2015-10-26T08:10:45Z</time>
      </trkpt>
      <trkpt lat="46.46147" lon="-0.81164">
        <ele>6.4</ele>
        <time>2015-10-26T08:11:01Z</time>
      </trkpt>
      <trkpt lat="46.46133" lon="-0.81185">
        <ele>7.4</ele>
        <time>2015-10-26T08:11:21Z</time>
      </trkpt>
      <trkpt lat="46.46113" lon="-0.81173">
        <ele>7.2</ele>
        <time>2015-10-26T08:11:37Z</time>
      </trkpt>
      <trkpt lat="46.46113" lon="-0.81173">
        <ele>7.2</ele>
        <time>2015-10-26T08:11:38Z</time>
      </trkpt>
      <trkpt lat="46.46107" lon="-0.81173">
        <ele>7.3</ele>
        <time>2015-10-26T08:11:45Z</time>
      </trkpt>
      <trkpt lat="46.46102" lon="-0.81177">
        <ele>7.6</ele>
        <time>2015-10-26T08:11:51Z</time>
      </trkpt>
      <trkpt lat="46.46098" lon="-0.81182">
        <ele>7.8</ele>
        <time>2015-10-26T08:11:55Z</time>
      </trkpt>
      <trkpt lat="46.46088" lon="-0.81204">
        <ele>7.7</ele>
        <time>2015-10-26T08:12:12Z</time>
      </trkpt>
      <trkpt lat="46.4607" lon="-0.81207">
        <ele>7.6</ele>
        <time>2015-10-26T08:12:28Z</time>
      </trkpt>
      <trkpt lat="46.46052" lon="-0.81203">
        <ele>7.7</ele>
        <time>2015-10-26T08:12:43Z</time>
      </trkpt>
      <trkpt lat="46.46046" lon="-0.81199">
        <ele>7.8</ele>
        <time>2015-10-26T08:12:49Z</time>
      </trkpt>
      <trkpt lat="46.46027" lon="-0.81194">
        <ele>8</ele>
        <time>2015-10-26T08:13:04Z</time>
      </trkpt>
      <trkpt lat="46.46009" lon="-0.81198">
        <ele>7.3</ele>
        <time>2015-10-26T08:13:19Z</time>
      </trkpt>
      <trkpt lat="46.46001" lon="-0.81208">
        <ele>7</ele>
        <time>2015-10-26T08:13:28Z</time>
      </trkpt>
      <trkpt lat="46.45992" lon="-0.8123">
        <ele>7</ele>
        <time>2015-10-26T08:13:43Z</time>
      </trkpt>
      <trkpt lat="46.45983" lon="-0.81254">
        <ele>7</ele>
        <time>2015-10-26T08:13:56Z</time>
      </trkpt>
      <trkpt lat="46.45975" lon="-0.81278">
        <ele>7</ele>
        <time>2015-10-26T08:14:10Z</time>
      </trkpt>
      <trkpt lat="46.45965" lon="-0.81299">
        <ele>7</ele>
        <time>2015-10-26T08:14:25Z</time>
      </trkpt>
      <trkpt lat="46.45958" lon="-0.81314">
        <ele>7</ele>
        <time>2015-10-26T08:14:35Z</time>
      </trkpt>
      <trkpt lat="46.45954" lon="-0.81323">
        <ele>7</ele>
        <time>2015-10-26T08:14:41Z</time>
      </trkpt>
      <trkpt lat="46.45941" lon="-0.81343">
        <ele>6.9</ele>
        <time>2015-10-26T08:14:56Z</time>
      </trkpt>
      <trkpt lat="46.45929" lon="-0.81363">
        <ele>7</ele>
        <time>2015-10-26T08:15:11Z</time>
      </trkpt>
      <trkpt lat="46.45916" lon="-0.81383">
        <ele>7</ele>
        <time>2015-10-26T08:15:25Z</time>
      </trkpt>
      <trkpt lat="46.45904" lon="-0.81405">
        <ele>6.6</ele>
        <time>2015-10-26T08:15:40Z</time>
      </trkpt>
      <trkpt lat="46.45892" lon="-0.81426">
        <ele>6.1</ele>
        <time>2015-10-26T08:15:54Z</time>
      </trkpt>
      <trkpt lat="46.4588" lon="-0.81445">
        <ele>6</ele>
        <time>2015-10-26T08:16:07Z</time>
      </trkpt>
      <trkpt lat="46.45868" lon="-0.81465">
        <ele>6</ele>
        <time>2015-10-26T08:16:21Z</time>
      </trkpt>
      <trkpt lat="46.45856" lon="-0.81485">
        <ele>6.4</ele>
        <time>2015-10-26T08:16:34Z</time>
      </trkpt>
      <trkpt lat="46.45842" lon="-0.81505">
        <ele>6.4</ele>
        <time>2015-10-26T08:16:49Z</time>
      </trkpt>
      <trkpt lat="46.45833" lon="-0.81524">
        <ele>6.8</ele>
        <time>2015-10-26T08:17:02Z</time>
      </trkpt>
      <trkpt lat="46.45821" lon="-0.81543">
        <ele>6.6</ele>
        <time>2015-10-26T08:17:16Z</time>
      </trkpt>
      <trkpt lat="46.45808" lon="-0.81563">
        <ele>6.3</ele>
        <time>2015-10-26T08:17:31Z</time>
      </trkpt>
      <trkpt lat="46.45805" lon="-0.81566">
        <ele>6.4</ele>
        <time>2015-10-26T08:17:34Z</time>
      </trkpt>
      <trkpt lat="46.45791" lon="-0.81586">
        <ele>6.4</ele>
        <time>2015-10-26T08:17:48Z</time>
      </trkpt>
      <trkpt lat="46.4578" lon="-0.81606">
        <ele>6</ele>
        <time>2015-10-26T08:18:02Z</time>
      </trkpt>
      <trkpt lat="46.45769" lon="-0.81628">
        <ele>6</ele>
        <time>2015-10-26T08:18:14Z</time>
      </trkpt>
      <trkpt lat="46.45759" lon="-0.81644">
        <ele>6</ele>
        <time>2015-10-26T08:18:25Z</time>
      </trkpt>
      <trkpt lat="46.45751" lon="-0.81653">
        <ele>6</ele>
        <time>2015-10-26T08:18:32Z</time>
      </trkpt>
      <trkpt lat="46.45741" lon="-0.81675">
        <ele>6.3</ele>
        <time>2015-10-26T08:18:46Z</time>
      </trkpt>
      <trkpt lat="46.45728" lon="-0.81695">
        <ele>6.8</ele>
        <time>2015-10-26T08:19:00Z</time>
      </trkpt>
      <trkpt lat="46.45716" lon="-0.81716">
        <ele>6.2</ele>
        <time>2015-10-26T08:19:12Z</time>
      </trkpt>
      <trkpt lat="46.45704" lon="-0.81737">
        <ele>6</ele>
        <time>2015-10-26T08:19:26Z</time>
      </trkpt>
      <trkpt lat="46.4569" lon="-0.81757">
        <ele>6</ele>
        <time>2015-10-26T08:19:40Z</time>
      </trkpt>
      <trkpt lat="46.45678" lon="-0.81778">
        <ele>6</ele>
        <time>2015-10-26T08:19:53Z</time>
      </trkpt>
      <trkpt lat="46.45666" lon="-0.81799">
        <ele>6</ele>
        <time>2015-10-26T08:20:06Z</time>
      </trkpt>
      <trkpt lat="46.45657" lon="-0.81823">
        <ele>6</ele>
        <time>2015-10-26T08:20:19Z</time>
      </trkpt>
      <trkpt lat="46.45662" lon="-0.81849">
        <ele>6</ele>
        <time>2015-10-26T08:20:33Z</time>
      </trkpt>
      <trkpt lat="46.45674" lon="-0.81869">
        <ele>6</ele>
        <time>2015-10-26T08:20:47Z</time>
      </trkpt>
      <trkpt lat="46.45688" lon="-0.81886">
        <ele>6</ele>
        <time>2015-10-26T08:21:00Z</time>
      </trkpt>
      <trkpt lat="46.45703" lon="-0.81902">
        <ele>6</ele>
        <time>2015-10-26T08:21:12Z</time>
      </trkpt>
      <trkpt lat="46.45717" lon="-0.81918">
        <ele>6</ele>
        <time>2015-10-26T08:21:25Z</time>
      </trkpt>
      <trkpt lat="46.4573" lon="-0.81936">
        <ele>6</ele>
        <time>2015-10-26T08:21:38Z</time>
      </trkpt>
      <trkpt lat="46.45736" lon="-0.81945">
        <ele>6</ele>
        <time>2015-10-26T08:21:44Z</time>
      </trkpt>
      <trkpt lat="46.45739" lon="-0.81951">
        <ele>6.1</ele>
        <time>2015-10-26T08:21:48Z</time>
      </trkpt>
      <trkpt lat="46.45754" lon="-0.81969">
        <ele>6</ele>
        <time>2015-10-26T08:22:02Z</time>
      </trkpt>
      <trkpt lat="46.45768" lon="-0.81987">
        <ele>6.2</ele>
        <time>2015-10-26T08:22:16Z</time>
      </trkpt>
      <trkpt lat="46.45771" lon="-0.8199">
        <ele>6.2</ele>
        <time>2015-10-26T08:22:19Z</time>
      </trkpt>
      <trkpt lat="46.45775" lon="-0.81995">
        <ele>6.1</ele>
        <time>2015-10-26T08:22:23Z</time>
      </trkpt>
      <trkpt lat="46.45783" lon="-0.8201">
        <ele>6.3</ele>
        <time>2015-10-26T08:22:33Z</time>
      </trkpt>
      <trkpt lat="46.45796" lon="-0.8203">
        <ele>6.4</ele>
        <time>2015-10-26T08:22:46Z</time>
      </trkpt>
      <trkpt lat="46.45798" lon="-0.82037">
        <ele>6.4</ele>
        <time>2015-10-26T08:22:50Z</time>
      </trkpt>
      <trkpt lat="46.458" lon="-0.82043">
        <ele>6.5</ele>
        <time>2015-10-26T08:22:54Z</time>
      </trkpt>
      <trkpt lat="46.45804" lon="-0.82049">
        <ele>6.7</ele>
        <time>2015-10-26T08:22:58Z</time>
      </trkpt>
      <trkpt lat="46.45803" lon="-0.82074">
        <ele>7.5</ele>
        <time>2015-10-26T08:23:13Z</time>
      </trkpt>
      <trkpt lat="46.45792" lon="-0.82095">
        <ele>7.4</ele>
        <time>2015-10-26T08:23:27Z</time>
      </trkpt>
      <trkpt lat="46.45781" lon="-0.82118">
        <ele>7.6</ele>
        <time>2015-10-26T08:23:40Z</time>
      </trkpt>
      <trkpt lat="46.45771" lon="-0.82142">
        <ele>7.6</ele>
        <time>2015-10-26T08:23:55Z</time>
      </trkpt>
      <trkpt lat="46.45769" lon="-0.82145">
        <ele>7.6</ele>
        <time>2015-10-26T08:23:57Z</time>
      </trkpt>
      <trkpt lat="46.45761" lon="-0.82161">
        <ele>7.6</ele>
        <time>2015-10-26T08:24:06Z</time>
      </trkpt>
      <trkpt lat="46.45758" lon="-0.82167">
        <ele>7.6</ele>
        <time>2015-10-26T08:24:10Z</time>
      </trkpt>
      <trkpt lat="46.45755" lon="-0.8217">
        <ele>7.5</ele>
        <time>2015-10-26T08:24:14Z</time>
      </trkpt>
      <trkpt lat="46.45743" lon="-0.8219">
        <ele>7.4</ele>
        <time>2015-10-26T08:24:30Z</time>
      </trkpt>
      <trkpt lat="46.45731" lon="-0.8221">
        <ele>7.4</ele>
        <time>2015-10-26T08:24:44Z</time>
      </trkpt>
      <trkpt lat="46.45719" lon="-0.82229">
        <ele>7.1</ele>
        <time>2015-10-26T08:24:58Z</time>
      </trkpt>
      <trkpt lat="46.45705" lon="-0.82246">
        <ele>7.2</ele>
        <time>2015-10-26T08:25:11Z</time>
      </trkpt>
      <trkpt lat="46.457" lon="-0.8225">
        <ele>7.2</ele>
        <time>2015-10-26T08:25:16Z</time>
      </trkpt>
      <trkpt lat="46.45684" lon="-0.82265">
        <ele>7.3</ele>
        <time>2015-10-26T08:25:31Z</time>
      </trkpt>
      <trkpt lat="46.45671" lon="-0.82281">
        <ele>6.7</ele>
        <time>2015-10-26T08:25:45Z</time>
      </trkpt>
      <trkpt lat="46.45657" lon="-0.82295">
        <ele>6.8</ele>
        <time>2015-10-26T08:25:58Z</time>
      </trkpt>
      <trkpt lat="46.45651" lon="-0.82302">
        <ele>6.7</ele>
        <time>2015-10-26T08:26:04Z</time>
      </trkpt>
      <trkpt lat="46.45647" lon="-0.82309">
        <ele>6.8</ele>
        <time>2015-10-26T08:26:09Z</time>
      </trkpt>
      <trkpt lat="46.45642" lon="-0.82315">
        <ele>6.7</ele>
        <time>2015-10-26T08:26:14Z</time>
      </trkpt>
      <trkpt lat="46.45639" lon="-0.82322">
        <ele>6.6</ele>
        <time>2015-10-26T08:26:18Z</time>
      </trkpt>
      <trkpt lat="46.45629" lon="-0.82345">
        <ele>7.5</ele>
        <time>2015-10-26T08:26:33Z</time>
      </trkpt>
      <trkpt lat="46.45619" lon="-0.82368">
        <ele>7.9</ele>
        <time>2015-10-26T08:26:47Z</time>
      </trkpt>
      <trkpt lat="46.45609" lon="-0.82391">
        <ele>8</ele>
        <time>2015-10-26T08:27:03Z</time>
      </trkpt>
      <trkpt lat="46.456" lon="-0.82416">
        <ele>8.3</ele>
        <time>2015-10-26T08:27:17Z</time>
      </trkpt>
      <trkpt lat="46.45592" lon="-0.8244">
        <ele>9.2</ele>
        <time>2015-10-26T08:27:30Z</time>
      </trkpt>
      <trkpt lat="46.45586" lon="-0.82466">
        <ele>9.4</ele>
        <time>2015-10-26T08:27:44Z</time>
      </trkpt>
      <trkpt lat="46.45583" lon="-0.82492">
        <ele>9</ele>
        <time>2015-10-26T08:27:57Z</time>
      </trkpt>
      <trkpt lat="46.45578" lon="-0.82518">
        <ele>8.4</ele>
        <time>2015-10-26T08:28:11Z</time>
      </trkpt>
      <trkpt lat="46.45574" lon="-0.82545">
        <ele>8.4</ele>
        <time>2015-10-26T08:28:25Z</time>
      </trkpt>
      <trkpt lat="46.45574" lon="-0.82547">
        <ele>8.5</ele>
        <time>2015-10-26T08:28:26Z</time>
      </trkpt>
      <trkpt lat="46.45573" lon="-0.82556">
        <ele>8.6</ele>
        <time>2015-10-26T08:28:31Z</time>
      </trkpt>
      <trkpt lat="46.4557" lon="-0.82581">
        <ele>8.6</ele>
        <time>2015-10-26T08:28:44Z</time>
      </trkpt>
      <trkpt lat="46.45567" lon="-0.82607">
        <ele>8.5</ele>
        <time>2015-10-26T08:28:58Z</time>
      </trkpt>
      <trkpt lat="46.45567" lon="-0.82635">
        <ele>7.5</ele>
        <time>2015-10-26T08:29:12Z</time>
      </trkpt>
      <trkpt lat="46.4557" lon="-0.8266">
        <ele>8</ele>
        <time>2015-10-26T08:29:26Z</time>
      </trkpt>
      <trkpt lat="46.45573" lon="-0.82672">
        <ele>8.2</ele>
        <time>2015-10-26T08:29:33Z</time>
      </trkpt>
      <trkpt lat="46.45574" lon="-0.827">
        <ele>7.6</ele>
        <time>2015-10-26T08:29:47Z</time>
      </trkpt>
      <trkpt lat="46.45578" lon="-0.82727">
        <ele>7.5</ele>
        <time>2015-10-26T08:30:00Z</time>
      </trkpt>
      <trkpt lat="46.4558" lon="-0.82754">
        <ele>6.9</ele>
        <time>2015-10-26T08:30:13Z</time>
      </trkpt>
      <trkpt lat="46.45582" lon="-0.82759">
        <ele>6.9</ele>
        <time>2015-10-26T08:30:16Z</time>
      </trkpt>
      <trkpt lat="46.45588" lon="-0.8278">
        <ele>7.6</ele>
        <time>2015-10-26T08:30:31Z</time>
      </trkpt>
      <trkpt lat="46.45605" lon="-0.82767">
        <ele>8.7</ele>
        <time>2015-10-26T08:30:44Z</time>
      </trkpt>
      <trkpt lat="46.45622" lon="-0.82755">
        <ele>9.3</ele>
        <time>2015-10-26T08:30:57Z</time>
      </trkpt>
      <trkpt lat="46.45638" lon="-0.82742">
        <ele>9.9</ele>
        <time>2015-10-26T08:31:12Z</time>
      </trkpt>
      <trkpt lat="46.45655" lon="-0.8273">
        <ele>10.7</ele>
        <time>2015-10-26T08:31:27Z</time>
      </trkpt>
      <trkpt lat="46.45671" lon="-0.82719">
        <ele>10.6</ele>
        <time>2015-10-26T08:31:41Z</time>
      </trkpt>
      <trkpt lat="46.45682" lon="-0.82709">
        <ele>11.6</ele>
        <time>2015-10-26T08:31:50Z</time>
      </trkpt>
      <trkpt lat="46.45694" lon="-0.82701">
        <ele>12.2</ele>
        <time>2015-10-26T08:32:00Z</time>
      </trkpt>
      <trkpt lat="46.45709" lon="-0.82687">
        <ele>13.6</ele>
        <time>2015-10-26T08:32:14Z</time>
      </trkpt>
      <trkpt lat="46.45722" lon="-0.82667">
        <ele>14</ele>
        <time>2015-10-26T08:32:27Z</time>
      </trkpt>
      <trkpt lat="46.45732" lon="-0.82645">
        <ele>14.7</ele>
        <time>2015-10-26T08:32:40Z</time>
      </trkpt>
      <trkpt lat="46.4574" lon="-0.8262">
        <ele>15</ele>
        <time>2015-10-26T08:32:54Z</time>
      </trkpt>
      <trkpt lat="46.45749" lon="-0.82597">
        <ele>14.5</ele>
        <time>2015-10-26T08:33:07Z</time>
      </trkpt>
      <trkpt lat="46.45758" lon="-0.82573">
        <ele>15.3</ele>
        <time>2015-10-26T08:33:21Z</time>
      </trkpt>
      <trkpt lat="46.45768" lon="-0.82549">
        <ele>15.7</ele>
        <time>2015-10-26T08:33:35Z</time>
      </trkpt>
      <trkpt lat="46.45779" lon="-0.82529">
        <ele>15.3</ele>
        <time>2015-10-26T08:33:49Z</time>
      </trkpt>
      <trkpt lat="46.45789" lon="-0.82507">
        <ele>16.7</ele>
        <time>2015-10-26T08:34:03Z</time>
      </trkpt>
      <trkpt lat="46.45792" lon="-0.825">
        <ele>17</ele>
        <time>2015-10-26T08:34:07Z</time>
      </trkpt>
      <trkpt lat="46.45802" lon="-0.82478">
        <ele>16.6</ele>
        <time>2015-10-26T08:34:21Z</time>
      </trkpt>
      <trkpt lat="46.45807" lon="-0.8247">
        <ele>16.3</ele>
        <time>2015-10-26T08:34:26Z</time>
      </trkpt>
      <trkpt lat="46.45815" lon="-0.82453">
        <ele>17.7</ele>
        <time>2015-10-26T08:34:37Z</time>
      </trkpt>
      <trkpt lat="46.45827" lon="-0.82433">
        <ele>18.3</ele>
        <time>2015-10-26T08:34:52Z</time>
      </trkpt>
      <trkpt lat="46.45841" lon="-0.82415">
        <ele>17.8</ele>
        <time>2015-10-26T08:35:06Z</time>
      </trkpt>
      <trkpt lat="46.45855" lon="-0.82398">
        <ele>18.5</ele>
        <time>2015-10-26T08:35:21Z</time>
      </trkpt>
      <trkpt lat="46.45857" lon="-0.82396">
        <ele>18.4</ele>
        <time>2015-10-26T08:35:23Z</time>
      </trkpt>
      <trkpt lat="46.45864" lon="-0.8239">
        <ele>18.4</ele>
        <time>2015-10-26T08:35:29Z</time>
      </trkpt>
      <trkpt lat="46.45865" lon="-0.82389">
        <ele>18.4</ele>
        <time>2015-10-26T08:35:30Z</time>
      </trkpt>
      <trkpt lat="46.45879" lon="-0.82377">
        <ele>19.3</ele>
        <time>2015-10-26T08:35:42Z</time>
      </trkpt>
      <trkpt lat="46.45884" lon="-0.82374">
        <ele>19.6</ele>
        <time>2015-10-26T08:35:46Z</time>
      </trkpt>
      <trkpt lat="46.45887" lon="-0.82372">
        <ele>19.7</ele>
        <time>2015-10-26T08:35:48Z</time>
      </trkpt>
      <trkpt lat="46.45893" lon="-0.82366">
        <ele>19.7</ele>
        <time>2015-10-26T08:35:53Z</time>
      </trkpt>
      <trkpt lat="46.45909" lon="-0.82353">
        <ele>20</ele>
        <time>2015-10-26T08:36:06Z</time>
      </trkpt>
      <trkpt lat="46.45909" lon="-0.82352">
        <ele>20</ele>
        <time>2015-10-26T08:36:07Z</time>
      </trkpt>
      <trkpt lat="46.45912" lon="-0.82349">
        <ele>19.9</ele>
        <time>2015-10-26T08:36:11Z</time>
      </trkpt>
      <trkpt lat="46.45929" lon="-0.82338">
        <ele>19.9</ele>
        <time>2015-10-26T08:36:25Z</time>
      </trkpt>
      <trkpt lat="46.45945" lon="-0.82325">
        <ele>19.7</ele>
        <time>2015-10-26T08:36:37Z</time>
      </trkpt>
      <trkpt lat="46.45952" lon="-0.82316">
        <ele>19.8</ele>
        <time>2015-10-26T08:36:43Z</time>
      </trkpt>
      <trkpt lat="46.45969" lon="-0.82312">
        <ele>20.8</ele>
        <time>2015-10-26T08:36:57Z</time>
      </trkpt>
      <trkpt lat="46.45971" lon="-0.82315">
        <ele>20.9</ele>
        <time>2015-10-26T08:36:59Z</time>
      </trkpt>
      <trkpt lat="46.45985" lon="-0.82333">
        <ele>22.4</ele>
        <time>2015-10-26T08:37:15Z</time>
      </trkpt>
      <trkpt lat="46.45987" lon="-0.82335">
        <ele>22.6</ele>
        <time>2015-10-26T08:37:17Z</time>
      </trkpt>
      <trkpt lat="46.45999" lon="-0.82354">
        <ele>23.9</ele>
        <time>2015-10-26T08:37:32Z</time>
      </trkpt>
      <trkpt lat="46.46" lon="-0.82356">
        <ele>24</ele>
        <time>2015-10-26T08:37:33Z</time>
      </trkpt>
      <trkpt lat="46.46008" lon="-0.82363">
        <ele>25.1</ele>
        <time>2015-10-26T08:37:40Z</time>
      </trkpt>
      <trkpt lat="46.46019" lon="-0.82385">
        <ele>26.4</ele>
        <time>2015-10-26T08:37:54Z</time>
      </trkpt>
      <trkpt lat="46.46024" lon="-0.82401">
        <ele>26.8</ele>
        <time>2015-10-26T08:38:03Z</time>
      </trkpt>
      <trkpt lat="46.46029" lon="-0.82415">
        <ele>27.1</ele>
        <time>2015-10-26T08:38:11Z</time>
      </trkpt>
      <trkpt lat="46.46033" lon="-0.82427">
        <ele>27.8</ele>
        <time>2015-10-26T08:38:18Z</time>
      </trkpt>
      <trkpt lat="46.46027" lon="-0.8244">
        <ele>27.8</ele>
        <time>2015-10-26T08:38:27Z</time>
      </trkpt>
      <trkpt lat="46.46011" lon="-0.82453">
        <ele>27.9</ele>
        <time>2015-10-26T08:38:41Z</time>
      </trkpt>
      <trkpt lat="46.45994" lon="-0.82466">
        <ele>28.6</ele>
        <time>2015-10-26T08:38:55Z</time>
      </trkpt>
      <trkpt lat="46.45978" lon="-0.8248">
        <ele>29.3</ele>
        <time>2015-10-26T08:39:08Z</time>
      </trkpt>
      <trkpt lat="46.45961" lon="-0.82494">
        <ele>29.8</ele>
        <time>2015-10-26T08:39:22Z</time>
      </trkpt>
      <trkpt lat="46.45948" lon="-0.82511">
        <ele>30.4</ele>
        <time>2015-10-26T08:39:35Z</time>
      </trkpt>
      <trkpt lat="46.45942" lon="-0.82537">
        <ele>31.2</ele>
        <time>2015-10-26T08:39:49Z</time>
      </trkpt>
      <trkpt lat="46.45945" lon="-0.82563">
        <ele>32</ele>
        <time>2015-10-26T08:40:02Z</time>
      </trkpt>
      <trkpt lat="46.45944" lon="-0.82589">
        <ele>32.2</ele>
        <time>2015-10-26T08:40:16Z</time>
      </trkpt>
      <trkpt lat="46.45934" lon="-0.82611">
        <ele>33</ele>
        <time>2015-10-26T08:40:30Z</time>
      </trkpt>
      <trkpt lat="46.45919" lon="-0.82629">
        <ele>33.6</ele>
        <time>2015-10-26T08:40:44Z</time>
      </trkpt>
      <trkpt lat="46.45905" lon="-0.82647">
        <ele>33.9</ele>
        <time>2015-10-26T08:40:58Z</time>
      </trkpt>
      <trkpt lat="46.45904" lon="-0.82649">
        <ele>33.9</ele>
        <time>2015-10-26T08:41:00Z</time>
      </trkpt>
      <trkpt lat="46.459" lon="-0.82652">
        <ele>33.9</ele>
        <time>2015-10-26T08:41:05Z</time>
      </trkpt>
      <trkpt lat="46.45888" lon="-0.82664">
        <ele>33.9</ele>
        <time>2015-10-26T08:41:17Z</time>
      </trkpt>
      <trkpt lat="46.45872" lon="-0.82679">
        <ele>33.6</ele>
        <time>2015-10-26T08:41:32Z</time>
      </trkpt>
      <trkpt lat="46.45859" lon="-0.82698">
        <ele>33</ele>
        <time>2015-10-26T08:41:48Z</time>
      </trkpt>
      <trkpt lat="46.45846" lon="-0.82717">
        <ele>32.8</ele>
        <time>2015-10-26T08:42:02Z</time>
      </trkpt>
      <trkpt lat="46.45834" lon="-0.82739">
        <ele>32.6</ele>
        <time>2015-10-26T08:42:19Z</time>
      </trkpt>
      <trkpt lat="46.45826" lon="-0.82763">
        <ele>33</ele>
        <time>2015-10-26T08:42:34Z</time>
      </trkpt>
      <trkpt lat="46.45818" lon="-0.82787">
        <ele>32.9</ele>
        <time>2015-10-26T08:42:50Z</time>
      </trkpt>
      <trkpt lat="46.4581" lon="-0.8281">
        <ele>32.4</ele>
        <time>2015-10-26T08:43:04Z</time>
      </trkpt>
      <trkpt lat="46.45796" lon="-0.82828">
        <ele>32.1</ele>
        <time>2015-10-26T08:43:17Z</time>
      </trkpt>
      <trkpt lat="46.4578" lon="-0.82842">
        <ele>31.2</ele>
        <time>2015-10-26T08:43:31Z</time>
      </trkpt>
      <trkpt lat="46.45766" lon="-0.82859">
        <ele>30.6</ele>
        <time>2015-10-26T08:43:44Z</time>
      </trkpt>
      <trkpt lat="46.45767" lon="-0.82885">
        <ele>31.1</ele>
        <time>2015-10-26T08:43:57Z</time>
      </trkpt>
      <trkpt lat="46.45777" lon="-0.82908">
        <ele>31.3</ele>
        <time>2015-10-26T08:44:11Z</time>
      </trkpt>
      <trkpt lat="46.4579" lon="-0.82929">
        <ele>31.9</ele>
        <time>2015-10-26T08:44:25Z</time>
      </trkpt>
      <trkpt lat="46.45792" lon="-0.82931">
        <ele>32</ele>
        <time>2015-10-26T08:44:27Z</time>
      </trkpt>
      <trkpt lat="46.45796" lon="-0.82936">
        <ele>32.3</ele>
        <time>2015-10-26T08:44:31Z</time>
      </trkpt>
      <trkpt lat="46.45809" lon="-0.82957">
        <ele>32.7</ele>
        <time>2015-10-26T08:44:45Z</time>
      </trkpt>
      <trkpt lat="46.45821" lon="-0.82978">
        <ele>33.1</ele>
        <time>2015-10-26T08:44:59Z</time>
      </trkpt>
      <trkpt lat="46.45834" lon="-0.82999">
        <ele>34</ele>
        <time>2015-10-26T08:45:13Z</time>
      </trkpt>
      <trkpt lat="46.45845" lon="-0.8302">
        <ele>34.5</ele>
        <time>2015-10-26T08:45:27Z</time>
      </trkpt>
      <trkpt lat="46.45857" lon="-0.83042">
        <ele>35.1</ele>
        <time>2015-10-26T08:45:41Z</time>
      </trkpt>
      <trkpt lat="46.45859" lon="-0.83047">
        <ele>35.1</ele>
        <time>2015-10-26T08:45:45Z</time>
      </trkpt>
      <trkpt lat="46.45859" lon="-0.8305">
        <ele>35.1</ele>
        <time>2015-10-26T08:45:47Z</time>
      </trkpt>
      <trkpt lat="46.45869" lon="-0.83073">
        <ele>35.3</ele>
        <time>2015-10-26T08:46:01Z</time>
      </trkpt>
      <trkpt lat="46.45878" lon="-0.83097">
        <ele>35.6</ele>
        <time>2015-10-26T08:46:15Z</time>
      </trkpt>
      <trkpt lat="46.45888" lon="-0.83122">
        <ele>35.5</ele>
        <time>2015-10-26T08:46:29Z</time>
      </trkpt>
      <trkpt lat="46.45898" lon="-0.83144">
        <ele>35.3</ele>
        <time>2015-10-26T08:46:42Z</time>
      </trkpt>
      <trkpt lat="46.45909" lon="-0.83165">
        <ele>36.1</ele>
        <time>2015-10-26T08:46:55Z</time>
      </trkpt>
      <trkpt lat="46.45922" lon="-0.83185">
        <ele>35.8</ele>
        <time>2015-10-26T08:47:09Z</time>
      </trkpt>
      <trkpt lat="46.45933" lon="-0.832">
        <ele>35.4</ele>
        <time>2015-10-26T08:47:25Z</time>
      </trkpt>
      <trkpt lat="46.4593" lon="-0.83202">
        <ele>35.2</ele>
        <time>2015-10-26T08:49:13Z</time>
      </trkpt>
      <trkpt lat="46.45922" lon="-0.83194">
        <ele>35.2</ele>
        <time>2015-10-26T08:50:18Z</time>
      </trkpt>
      <trkpt lat="46.45922" lon="-0.83195">
        <ele>35.2</ele>
        <time>2015-10-26T08:50:57Z</time>
      </trkpt>
      <trkpt lat="46.45933" lon="-0.83203">
        <ele>35.3</ele>
        <time>2015-10-26T08:51:41Z</time>
      </trkpt>
      <trkpt lat="46.45936" lon="-0.832">
        <ele>35.5</ele>
        <time>2015-10-26T08:51:45Z</time>
      </trkpt>
      <trkpt lat="46.4595" lon="-0.83182">
        <ele>37.2</ele>
        <time>2015-10-26T08:51:59Z</time>
      </trkpt>
      <trkpt lat="46.45963" lon="-0.83164">
        <ele>38.8</ele>
        <time>2015-10-26T08:52:13Z</time>
      </trkpt>
      <trkpt lat="46.45977" lon="-0.83146">
        <ele>40.1</ele>
        <time>2015-10-26T08:52:28Z</time>
      </trkpt>
      <trkpt lat="46.45992" lon="-0.83131">
        <ele>41.5</ele>
        <time>2015-10-26T08:52:43Z</time>
      </trkpt>
      <trkpt lat="46.46" lon="-0.83123">
        <ele>42</ele>
        <time>2015-10-26T08:52:51Z</time>
      </trkpt>
      <trkpt lat="46.46016" lon="-0.83111">
        <ele>42.6</ele>
        <time>2015-10-26T08:53:04Z</time>
      </trkpt>
      <trkpt lat="46.46033" lon="-0.83099">
        <ele>43.2</ele>
        <time>2015-10-26T08:53:17Z</time>
      </trkpt>
      <trkpt lat="46.46049" lon="-0.83085">
        <ele>43.8</ele>
        <time>2015-10-26T08:53:30Z</time>
      </trkpt>
      <trkpt lat="46.46065" lon="-0.83074">
        <ele>43.7</ele>
        <time>2015-10-26T08:53:44Z</time>
      </trkpt>
      <trkpt lat="46.46077" lon="-0.83066">
        <ele>43.4</ele>
        <time>2015-10-26T08:53:56Z</time>
      </trkpt>
      <trkpt lat="46.46085" lon="-0.83082">
        <ele>43.9</ele>
        <time>2015-10-26T08:54:39Z</time>
      </trkpt>
      <trkpt lat="46.46095" lon="-0.83104">
        <ele>44</ele>
        <time>2015-10-26T08:54:52Z</time>
      </trkpt>
      <trkpt lat="46.46103" lon="-0.83127">
        <ele>44.4</ele>
        <time>2015-10-26T08:55:05Z</time>
      </trkpt>
      <trkpt lat="46.46114" lon="-0.83151">
        <ele>44.9</ele>
        <time>2015-10-26T08:55:18Z</time>
      </trkpt>
      <trkpt lat="46.46121" lon="-0.83177">
        <ele>44.6</ele>
        <time>2015-10-26T08:55:32Z</time>
      </trkpt>
      <trkpt lat="46.46127" lon="-0.83203">
        <ele>44</ele>
        <time>2015-10-26T08:55:45Z</time>
      </trkpt>
      <trkpt lat="46.46133" lon="-0.83222">
        <ele>44</ele>
        <time>2015-10-26T08:55:55Z</time>
      </trkpt>
      <trkpt lat="46.46135" lon="-0.83231">
        <ele>43.7</ele>
        <time>2015-10-26T08:56:01Z</time>
      </trkpt>
      <trkpt lat="46.46138" lon="-0.83237">
        <ele>43.5</ele>
        <time>2015-10-26T08:56:05Z</time>
      </trkpt>
      <trkpt lat="46.46141" lon="-0.83244">
        <ele>43.2</ele>
        <time>2015-10-26T08:56:09Z</time>
      </trkpt>
      <trkpt lat="46.4615" lon="-0.83268">
        <ele>42.7</ele>
        <time>2015-10-26T08:56:23Z</time>
      </trkpt>
      <trkpt lat="46.46159" lon="-0.8329">
        <ele>41.8</ele>
        <time>2015-10-26T08:56:38Z</time>
      </trkpt>
      <trkpt lat="46.46168" lon="-0.83314">
        <ele>40.9</ele>
        <time>2015-10-26T08:56:52Z</time>
      </trkpt>
      <trkpt lat="46.4618" lon="-0.83335">
        <ele>40</ele>
        <time>2015-10-26T08:57:05Z</time>
      </trkpt>
      <trkpt lat="46.46186" lon="-0.83345">
        <ele>39.2</ele>
        <time>2015-10-26T08:57:11Z</time>
      </trkpt>
      <trkpt lat="46.46198" lon="-0.83365">
        <ele>37.9</ele>
        <time>2015-10-26T08:57:23Z</time>
      </trkpt>
      <trkpt lat="46.46211" lon="-0.83385">
        <ele>37.1</ele>
        <time>2015-10-26T08:57:35Z</time>
      </trkpt>
      <trkpt lat="46.46224" lon="-0.83403">
        <ele>36</ele>
        <time>2015-10-26T08:57:48Z</time>
      </trkpt>
      <trkpt lat="46.4624" lon="-0.83417">
        <ele>35.6</ele>
        <time>2015-10-26T08:58:01Z</time>
      </trkpt>
      <trkpt lat="46.46254" lon="-0.83434">
        <ele>34.5</ele>
        <time>2015-10-26T08:58:14Z</time>
      </trkpt>
      <trkpt lat="46.46265" lon="-0.83456">
        <ele>32.4</ele>
        <time>2015-10-26T08:58:29Z</time>
      </trkpt>
      <trkpt lat="46.46277" lon="-0.83478">
        <ele>31.2</ele>
        <time>2015-10-26T08:58:42Z</time>
      </trkpt>
      <trkpt lat="46.46285" lon="-0.83495">
        <ele>29.7</ele>
        <time>2015-10-26T08:58:53Z</time>
      </trkpt>
      <trkpt lat="46.46289" lon="-0.83503">
        <ele>29.1</ele>
        <time>2015-10-26T08:58:58Z</time>
      </trkpt>
      <trkpt lat="46.46301" lon="-0.83522">
        <ele>28.6</ele>
        <time>2015-10-26T08:59:11Z</time>
      </trkpt>
      <trkpt lat="46.46313" lon="-0.83543">
        <ele>27.4</ele>
        <time>2015-10-26T08:59:25Z</time>
      </trkpt>
      <trkpt lat="46.46325" lon="-0.83564">
        <ele>26.1</ele>
        <time>2015-10-26T08:59:39Z</time>
      </trkpt>
      <trkpt lat="46.46334" lon="-0.8358">
        <ele>25.9</ele>
        <time>2015-10-26T08:59:49Z</time>
      </trkpt>
      <trkpt lat="46.46346" lon="-0.836">
        <ele>22.3</ele>
        <time>2015-10-26T09:00:01Z</time>
      </trkpt>
      <trkpt lat="46.46354" lon="-0.83616">
        <ele>21.2</ele>
        <time>2015-10-26T09:00:11Z</time>
      </trkpt>
      <trkpt lat="46.46367" lon="-0.83635">
        <ele>19.9</ele>
        <time>2015-10-26T09:00:24Z</time>
      </trkpt>
      <trkpt lat="46.46372" lon="-0.8366">
        <ele>18.1</ele>
        <time>2015-10-26T09:00:38Z</time>
      </trkpt>
      <trkpt lat="46.46371" lon="-0.8368">
        <ele>16.9</ele>
        <time>2015-10-26T09:00:49Z</time>
      </trkpt>
      <trkpt lat="46.46372" lon="-0.83685">
        <ele>16.3</ele>
        <time>2015-10-26T09:00:53Z</time>
      </trkpt>
      <trkpt lat="46.46388" lon="-0.83696">
        <ele>14.9</ele>
        <time>2015-10-26T09:01:10Z</time>
      </trkpt>
      <trkpt lat="46.46404" lon="-0.83709">
        <ele>14.2</ele>
        <time>2015-10-26T09:01:24Z</time>
      </trkpt>
      <trkpt lat="46.4642" lon="-0.83721">
        <ele>14.2</ele>
        <time>2015-10-26T09:01:40Z</time>
      </trkpt>
      <trkpt lat="46.46422" lon="-0.8373">
        <ele>13.6</ele>
        <time>2015-10-26T09:01:58Z</time>
      </trkpt>
      <trkpt lat="46.46417" lon="-0.83756">
        <ele>11.8</ele>
        <time>2015-10-26T09:02:13Z</time>
      </trkpt>
      <trkpt lat="46.46413" lon="-0.83781">
        <ele>10.6</ele>
        <time>2015-10-26T09:02:27Z</time>
      </trkpt>
      <trkpt lat="46.4641" lon="-0.83806">
        <ele>8.7</ele>
        <time>2015-10-26T09:02:40Z</time>
      </trkpt>
      <trkpt lat="46.46408" lon="-0.83813">
        <ele>8.5</ele>
        <time>2015-10-26T09:02:44Z</time>
      </trkpt>
      <trkpt lat="46.46401" lon="-0.83838">
        <ele>7.8</ele>
        <time>2015-10-26T09:02:58Z</time>
      </trkpt>
      <trkpt lat="46.4639" lon="-0.8386">
        <ele>7</ele>
        <time>2015-10-26T09:03:12Z</time>
      </trkpt>
      <trkpt lat="46.46374" lon="-0.83864">
        <ele>6.4</ele>
        <time>2015-10-26T09:03:44Z</time>
      </trkpt>
      <trkpt lat="46.46375" lon="-0.83867">
        <ele>6.4</ele>
        <time>2015-10-26T09:05:12Z</time>
      </trkpt>
      <trkpt lat="46.46377" lon="-0.83866">
        <ele>6.5</ele>
        <time>2015-10-26T09:05:14Z</time>
      </trkpt>
      <trkpt lat="46.46383" lon="-0.83871">
        <ele>6.5</ele>
        <time>2015-10-26T09:06:34Z</time>
      </trkpt>
      <trkpt lat="46.46376" lon="-0.8388">
        <ele>6.2</ele>
        <time>2015-10-26T09:08:13Z</time>
      </trkpt>
      <trkpt lat="46.46363" lon="-0.839">
        <ele>6</ele>
        <time>2015-10-26T09:08:30Z</time>
      </trkpt>
      <trkpt lat="46.4636" lon="-0.83901">
        <ele>6</ele>
        <time>2015-10-26T09:08:32Z</time>
      </trkpt>
      <trkpt lat="46.46357" lon="-0.83905">
        <ele>6</ele>
        <time>2015-10-26T09:08:37Z</time>
      </trkpt>
      <trkpt lat="46.46344" lon="-0.83925">
        <ele>6</ele>
        <time>2015-10-26T09:08:52Z</time>
      </trkpt>
      <trkpt lat="46.46343" lon="-0.83926">
        <ele>6</ele>
        <time>2015-10-26T09:08:53Z</time>
      </trkpt>
      <trkpt lat="46.46334" lon="-0.83937">
        <ele>6</ele>
        <time>2015-10-26T09:09:02Z</time>
      </trkpt>
      <trkpt lat="46.46321" lon="-0.83955">
        <ele>6</ele>
        <time>2015-10-26T09:09:15Z</time>
      </trkpt>
      <trkpt lat="46.46308" lon="-0.83975">
        <ele>6</ele>
        <time>2015-10-26T09:09:28Z</time>
      </trkpt>
      <trkpt lat="46.46295" lon="-0.83993">
        <ele>6</ele>
        <time>2015-10-26T09:09:41Z</time>
      </trkpt>
      <trkpt lat="46.4628" lon="-0.84012">
        <ele>6</ele>
        <time>2015-10-26T09:09:55Z</time>
      </trkpt>
      <trkpt lat="46.46263" lon="-0.84023">
        <ele>7</ele>
        <time>2015-10-26T09:10:09Z</time>
      </trkpt>
      <trkpt lat="46.46245" lon="-0.84025">
        <ele>8.2</ele>
        <time>2015-10-26T09:10:23Z</time>
      </trkpt>
      <trkpt lat="46.46227" lon="-0.84027">
        <ele>9.6</ele>
        <time>2015-10-26T09:10:37Z</time>
      </trkpt>
      <trkpt lat="46.46208" lon="-0.84027">
        <ele>10.5</ele>
        <time>2015-10-26T09:10:51Z</time>
      </trkpt>
      <trkpt lat="46.46191" lon="-0.84033">
        <ele>11.4</ele>
        <time>2015-10-26T09:11:04Z</time>
      </trkpt>
      <trkpt lat="46.46179" lon="-0.84054">
        <ele>11.6</ele>
        <time>2015-10-26T09:11:18Z</time>
      </trkpt>
      <trkpt lat="46.46178" lon="-0.84058">
        <ele>11.7</ele>
        <time>2015-10-26T09:11:21Z</time>
      </trkpt>
      <trkpt lat="46.46169" lon="-0.84082">
        <ele>11.3</ele>
        <time>2015-10-26T09:11:38Z</time>
      </trkpt>
      <trkpt lat="46.46165" lon="-0.84109">
        <ele>11</ele>
        <time>2015-10-26T09:11:52Z</time>
      </trkpt>
      <trkpt lat="46.46166" lon="-0.84135">
        <ele>11.9</ele>
        <time>2015-10-26T09:12:05Z</time>
      </trkpt>
      <trkpt lat="46.46166" lon="-0.84162">
        <ele>12.3</ele>
        <time>2015-10-26T09:12:18Z</time>
      </trkpt>
      <trkpt lat="46.46161" lon="-0.84186">
        <ele>16.2</ele>
        <time>2015-10-26T09:12:32Z</time>
      </trkpt>
      <trkpt lat="46.4615" lon="-0.84208">
        <ele>18.7</ele>
        <time>2015-10-26T09:12:50Z</time>
      </trkpt>
      <trkpt lat="46.46148" lon="-0.8422">
        <ele>19</ele>
        <time>2015-10-26T09:12:56Z</time>
      </trkpt>
      <trkpt lat="46.46147" lon="-0.84247">
        <ele>15.4</ele>
        <time>2015-10-26T09:13:07Z</time>
      </trkpt>
      <trkpt lat="46.4615" lon="-0.84273">
        <ele>13.5</ele>
        <time>2015-10-26T09:13:19Z</time>
      </trkpt>
      <trkpt lat="46.46152" lon="-0.84282">
        <ele>13.1</ele>
        <time>2015-10-26T09:13:24Z</time>
      </trkpt>
      <trkpt lat="46.46153" lon="-0.84292">
        <ele>13.3</ele>
        <time>2015-10-26T09:13:29Z</time>
      </trkpt>
      <trkpt lat="46.46154" lon="-0.84305">
        <ele>13.4</ele>
        <time>2015-10-26T09:13:36Z</time>
      </trkpt>
      <trkpt lat="46.46153" lon="-0.84332">
        <ele>14</ele>
        <time>2015-10-26T09:13:50Z</time>
      </trkpt>
      <trkpt lat="46.46147" lon="-0.84358">
        <ele>15.1</ele>
        <time>2015-10-26T09:14:04Z</time>
      </trkpt>
      <trkpt lat="46.4614" lon="-0.84382">
        <ele>14.2</ele>
        <time>2015-10-26T09:14:18Z</time>
      </trkpt>
      <trkpt lat="46.46134" lon="-0.84407">
        <ele>14.7</ele>
        <time>2015-10-26T09:14:33Z</time>
      </trkpt>
      <trkpt lat="46.4612" lon="-0.8441">
        <ele>14.9</ele>
        <time>2015-10-26T09:14:55Z</time>
      </trkpt>
      <trkpt lat="46.46104" lon="-0.8441">
        <ele>15.7</ele>
        <time>2015-10-26T09:15:25Z</time>
      </trkpt>
      <trkpt lat="46.46087" lon="-0.8442">
        <ele>17.8</ele>
        <time>2015-10-26T09:15:41Z</time>
      </trkpt>
      <trkpt lat="46.4607" lon="-0.8443">
        <ele>19.9</ele>
        <time>2015-10-26T09:15:56Z</time>
      </trkpt>
      <trkpt lat="46.46063" lon="-0.84433">
        <ele>20.6</ele>
        <time>2015-10-26T09:16:02Z</time>
      </trkpt>
      <trkpt lat="46.46046" lon="-0.8444">
        <ele>22.1</ele>
        <time>2015-10-26T09:16:17Z</time>
      </trkpt>
      <trkpt lat="46.46028" lon="-0.84447">
        <ele>23.2</ele>
        <time>2015-10-26T09:16:31Z</time>
      </trkpt>
      <trkpt lat="46.4601" lon="-0.84457">
        <ele>25.1</ele>
        <time>2015-10-26T09:16:46Z</time>
      </trkpt>
      <trkpt lat="46.45993" lon="-0.84466">
        <ele>27.1</ele>
        <time>2015-10-26T09:17:01Z</time>
      </trkpt>
      <trkpt lat="46.45976" lon="-0.84475">
        <ele>28.9</ele>
        <time>2015-10-26T09:17:16Z</time>
      </trkpt>
      <trkpt lat="46.45958" lon="-0.84483">
        <ele>31.3</ele>
        <time>2015-10-26T09:17:32Z</time>
      </trkpt>
      <trkpt lat="46.4594" lon="-0.84493">
        <ele>34</ele>
        <time>2015-10-26T09:17:48Z</time>
      </trkpt>
      <trkpt lat="46.45941" lon="-0.84518">
        <ele>35</ele>
        <time>2015-10-26T09:18:03Z</time>
      </trkpt>
      <trkpt lat="46.45942" lon="-0.84544">
        <ele>35.9</ele>
        <time>2015-10-26T09:18:18Z</time>
      </trkpt>
      <trkpt lat="46.45927" lon="-0.8456">
        <ele>37.9</ele>
        <time>2015-10-26T09:18:34Z</time>
      </trkpt>
      <trkpt lat="46.4591" lon="-0.84571">
        <ele>39.5</ele>
        <time>2015-10-26T09:18:49Z</time>
      </trkpt>
      <trkpt lat="46.45892" lon="-0.84582">
        <ele>40.8</ele>
        <time>2015-10-26T09:19:04Z</time>
      </trkpt>
      <trkpt lat="46.45876" lon="-0.84594">
        <ele>41.9</ele>
        <time>2015-10-26T09:19:18Z</time>
      </trkpt>
      <trkpt lat="46.45859" lon="-0.84606">
        <ele>43</ele>
        <time>2015-10-26T09:19:33Z</time>
      </trkpt>
      <trkpt lat="46.45842" lon="-0.84617">
        <ele>42.9</ele>
        <time>2015-10-26T09:19:47Z</time>
      </trkpt>
      <trkpt lat="46.45825" lon="-0.84627">
        <ele>43.3</ele>
        <time>2015-10-26T09:20:01Z</time>
      </trkpt>
      <trkpt lat="46.45813" lon="-0.84638">
        <ele>43.7</ele>
        <time>2015-10-26T09:20:12Z</time>
      </trkpt>
      <trkpt lat="46.45817" lon="-0.84663">
        <ele>43.6</ele>
        <time>2015-10-26T09:20:38Z</time>
      </trkpt>
      <trkpt lat="46.45822" lon="-0.84689">
        <ele>43.4</ele>
        <time>2015-10-26T09:21:29Z</time>
      </trkpt>
      <trkpt lat="46.45827" lon="-0.84715">
        <ele>42.7</ele>
        <time>2015-10-26T09:21:42Z</time>
      </trkpt>
      <trkpt lat="46.45832" lon="-0.8474">
        <ele>41.4</ele>
        <time>2015-10-26T09:21:55Z</time>
      </trkpt>
      <trkpt lat="46.45838" lon="-0.84765">
        <ele>40.1</ele>
        <time>2015-10-26T09:22:08Z</time>
      </trkpt>
      <trkpt lat="46.45843" lon="-0.84791">
        <ele>39</ele>
        <time>2015-10-26T09:22:21Z</time>
      </trkpt>
      <trkpt lat="46.45848" lon="-0.84816">
        <ele>38.4</ele>
        <time>2015-10-26T09:22:34Z</time>
      </trkpt>
      <trkpt lat="46.45852" lon="-0.84834">
        <ele>38</ele>
        <time>2015-10-26T09:22:44Z</time>
      </trkpt>
      <trkpt lat="46.45856" lon="-0.8486">
        <ele>38.3</ele>
        <time>2015-10-26T09:23:00Z</time>
      </trkpt>
      <trkpt lat="46.45855" lon="-0.84868">
        <ele>38.7</ele>
        <time>2015-10-26T09:23:05Z</time>
      </trkpt>
      <trkpt lat="46.45837" lon="-0.84869">
        <ele>40.3</ele>
        <time>2015-10-26T09:23:35Z</time>
      </trkpt>
      <trkpt lat="46.45819" lon="-0.84868">
        <ele>41</ele>
        <time>2015-10-26T09:23:48Z</time>
      </trkpt>
      <trkpt lat="46.458" lon="-0.84867">
        <ele>41.8</ele>
        <time>2015-10-26T09:24:01Z</time>
      </trkpt>
      <trkpt lat="46.45782" lon="-0.84866">
        <ele>42.9</ele>
        <time>2015-10-26T09:24:14Z</time>
      </trkpt>
      <trkpt lat="46.45764" lon="-0.84867">
        <ele>43.7</ele>
        <time>2015-10-26T09:24:27Z</time>
      </trkpt>
      <trkpt lat="46.45745" lon="-0.84867">
        <ele>44.4</ele>
        <time>2015-10-26T09:24:41Z</time>
      </trkpt>
      <trkpt lat="46.45726" lon="-0.84868">
        <ele>44.9</ele>
        <time>2015-10-26T09:24:55Z</time>
      </trkpt>
      <trkpt lat="46.45707" lon="-0.84868">
        <ele>45</ele>
        <time>2015-10-26T09:25:08Z</time>
      </trkpt>
      <trkpt lat="46.45688" lon="-0.8487">
        <ele>44.9</ele>
        <time>2015-10-26T09:25:21Z</time>
      </trkpt>
      <trkpt lat="46.4567" lon="-0.84873">
        <ele>44.6</ele>
        <time>2015-10-26T09:25:35Z</time>
      </trkpt>
      <trkpt lat="46.45652" lon="-0.84874">
        <ele>44.3</ele>
        <time>2015-10-26T09:25:48Z</time>
      </trkpt>
      <trkpt lat="46.45634" lon="-0.84877">
        <ele>43.8</ele>
        <time>2015-10-26T09:26:01Z</time>
      </trkpt>
      <trkpt lat="46.45616" lon="-0.8488">
        <ele>43.2</ele>
        <time>2015-10-26T09:26:14Z</time>
      </trkpt>
      <trkpt lat="46.45598" lon="-0.84885">
        <ele>42.9</ele>
        <time>2015-10-26T09:26:26Z</time>
      </trkpt>
      <trkpt lat="46.4558" lon="-0.84887">
        <ele>42.8</ele>
        <time>2015-10-26T09:26:38Z</time>
      </trkpt>
      <trkpt lat="46.45561" lon="-0.8489">
        <ele>42.2</ele>
        <time>2015-10-26T09:26:51Z</time>
      </trkpt>
      <trkpt lat="46.45542" lon="-0.84893">
        <ele>42</ele>
        <time>2015-10-26T09:27:04Z</time>
      </trkpt>
      <trkpt lat="46.45525" lon="-0.84894">
        <ele>41.9</ele>
        <time>2015-10-26T09:27:15Z</time>
      </trkpt>
      <trkpt lat="46.45507" lon="-0.84898">
        <ele>41.3</ele>
        <time>2015-10-26T09:27:28Z</time>
      </trkpt>
      <trkpt lat="46.45488" lon="-0.849">
        <ele>41</ele>
        <time>2015-10-26T09:27:41Z</time>
      </trkpt>
      <trkpt lat="46.4547" lon="-0.849">
        <ele>41</ele>
        <time>2015-10-26T09:27:53Z</time>
      </trkpt>
      <trkpt lat="46.45451" lon="-0.84902">
        <ele>41</ele>
        <time>2015-10-26T09:28:05Z</time>
      </trkpt>
      <trkpt lat="46.45433" lon="-0.84907">
        <ele>40.6</ele>
        <time>2015-10-26T09:28:18Z</time>
      </trkpt>
      <trkpt lat="46.45414" lon="-0.84907">
        <ele>40</ele>
        <time>2015-10-26T09:28:31Z</time>
      </trkpt>
      <trkpt lat="46.45395" lon="-0.84908">
        <ele>40</ele>
        <time>2015-10-26T09:28:44Z</time>
      </trkpt>
      <trkpt lat="46.45377" lon="-0.8491">
        <ele>39.7</ele>
        <time>2015-10-26T09:28:57Z</time>
      </trkpt>
      <trkpt lat="46.45374" lon="-0.8491">
        <ele>39.6</ele>
        <time>2015-10-26T09:28:59Z</time>
      </trkpt>
      <trkpt lat="46.45365" lon="-0.84897">
        <ele>39.8</ele>
        <time>2015-10-26T09:29:41Z</time>
      </trkpt>
      <trkpt lat="46.45361" lon="-0.8487">
        <ele>40</ele>
        <time>2015-10-26T09:29:56Z</time>
      </trkpt>
      <trkpt lat="46.45357" lon="-0.84843">
        <ele>39.3</ele>
        <time>2015-10-26T09:30:10Z</time>
      </trkpt>
      <trkpt lat="46.45356" lon="-0.84817">
        <ele>39</ele>
        <time>2015-10-26T09:30:24Z</time>
      </trkpt>
      <trkpt lat="46.45359" lon="-0.8479">
        <ele>38.4</ele>
        <time>2015-10-26T09:30:38Z</time>
      </trkpt>
      <trkpt lat="46.45365" lon="-0.84763">
        <ele>37.5</ele>
        <time>2015-10-26T09:30:52Z</time>
      </trkpt>
      <trkpt lat="46.4537" lon="-0.84738">
        <ele>36.7</ele>
        <time>2015-10-26T09:31:05Z</time>
      </trkpt>
      <trkpt lat="46.45381" lon="-0.84716">
        <ele>35.8</ele>
        <time>2015-10-26T09:31:19Z</time>
      </trkpt>
      <trkpt lat="46.45393" lon="-0.84695">
        <ele>35</ele>
        <time>2015-10-26T09:31:33Z</time>
      </trkpt>
      <trkpt lat="46.45406" lon="-0.84674">
        <ele>34.3</ele>
        <time>2015-10-26T09:31:47Z</time>
      </trkpt>
      <trkpt lat="46.45419" lon="-0.84655">
        <ele>33.2</ele>
        <time>2015-10-26T09:32:01Z</time>
      </trkpt>
      <trkpt lat="46.45431" lon="-0.84637">
        <ele>31.9</ele>
        <time>2015-10-26T09:32:14Z</time>
      </trkpt>
      <trkpt lat="46.45439" lon="-0.84612">
        <ele>31</ele>
        <time>2015-10-26T09:32:28Z</time>
      </trkpt>
      <trkpt lat="46.45438" lon="-0.84585">
        <ele>29.1</ele>
        <time>2015-10-26T09:32:42Z</time>
      </trkpt>
      <trkpt lat="46.45434" lon="-0.84559">
        <ele>27.3</ele>
        <time>2015-10-26T09:32:55Z</time>
      </trkpt>
      <trkpt lat="46.45428" lon="-0.84534">
        <ele>25.4</ele>
        <time>2015-10-26T09:33:08Z</time>
      </trkpt>
      <trkpt lat="46.45422" lon="-0.84509">
        <ele>23.6</ele>
        <time>2015-10-26T09:33:21Z</time>
      </trkpt>
      <trkpt lat="46.45417" lon="-0.84483">
        <ele>21.2</ele>
        <time>2015-10-26T09:33:34Z</time>
      </trkpt>
      <trkpt lat="46.45415" lon="-0.84456">
        <ele>18.8</ele>
        <time>2015-10-26T09:33:47Z</time>
      </trkpt>
      <trkpt lat="46.45414" lon="-0.84429">
        <ele>17.5</ele>
        <time>2015-10-26T09:34:00Z</time>
      </trkpt>
      <trkpt lat="46.45414" lon="-0.84403">
        <ele>16</ele>
        <time>2015-10-26T09:34:13Z</time>
      </trkpt>
      <trkpt lat="46.45417" lon="-0.84377">
        <ele>15</ele>
        <time>2015-10-26T09:34:26Z</time>
      </trkpt>
      <trkpt lat="46.4542" lon="-0.84351">
        <ele>14.7</ele>
        <time>2015-10-26T09:34:39Z</time>
      </trkpt>
      <trkpt lat="46.45425" lon="-0.84325">
        <ele>14.4</ele>
        <time>2015-10-26T09:34:52Z</time>
      </trkpt>
      <trkpt lat="46.45429" lon="-0.84298">
        <ele>14.9</ele>
        <time>2015-10-26T09:35:05Z</time>
      </trkpt>
      <trkpt lat="46.45433" lon="-0.84272">
        <ele>15</ele>
        <time>2015-10-26T09:35:18Z</time>
      </trkpt>
      <trkpt lat="46.45439" lon="-0.84246">
        <ele>14.2</ele>
        <time>2015-10-26T09:35:32Z</time>
      </trkpt>
      <trkpt lat="46.45446" lon="-0.8422">
        <ele>13</ele>
        <time>2015-10-26T09:35:46Z</time>
      </trkpt>
      <trkpt lat="46.45453" lon="-0.84195">
        <ele>11.4</ele>
        <time>2015-10-26T09:36:00Z</time>
      </trkpt>
      <trkpt lat="46.4546" lon="-0.8417">
        <ele>10.1</ele>
        <time>2015-10-26T09:36:14Z</time>
      </trkpt>
      <trkpt lat="46.45467" lon="-0.84144">
        <ele>8.8</ele>
        <time>2015-10-26T09:36:28Z</time>
      </trkpt>
      <trkpt lat="46.45472" lon="-0.84118">
        <ele>7.4</ele>
        <time>2015-10-26T09:36:42Z</time>
      </trkpt>
      <trkpt lat="46.45473" lon="-0.84116">
        <ele>7.4</ele>
        <time>2015-10-26T09:36:43Z</time>
      </trkpt>
      <trkpt lat="46.45475" lon="-0.84096">
        <ele>6.9</ele>
        <time>2015-10-26T09:36:55Z</time>
      </trkpt>
      <trkpt lat="46.45467" lon="-0.84074">
        <ele>5.4</ele>
        <time>2015-10-26T09:37:22Z</time>
      </trkpt>
      <trkpt lat="46.45449" lon="-0.84065">
        <ele>4.8</ele>
        <time>2015-10-26T09:37:43Z</time>
      </trkpt>
      <trkpt lat="46.45432" lon="-0.84055">
        <ele>5</ele>
        <time>2015-10-26T09:37:57Z</time>
      </trkpt>
      <trkpt lat="46.45413" lon="-0.84045">
        <ele>5</ele>
        <time>2015-10-26T09:38:11Z</time>
      </trkpt>
      <trkpt lat="46.45396" lon="-0.84038">
        <ele>5</ele>
        <time>2015-10-26T09:38:24Z</time>
      </trkpt>
      <trkpt lat="46.45387" lon="-0.84038">
        <ele>5</ele>
        <time>2015-10-26T09:38:30Z</time>
      </trkpt>
      <trkpt lat="46.45379" lon="-0.8404">
        <ele>5</ele>
        <time>2015-10-26T09:38:36Z</time>
      </trkpt>
      <trkpt lat="46.45362" lon="-0.84049">
        <ele>5</ele>
        <time>2015-10-26T09:38:49Z</time>
      </trkpt>
      <trkpt lat="46.45345" lon="-0.84056">
        <ele>5</ele>
        <time>2015-10-26T09:39:02Z</time>
      </trkpt>
      <trkpt lat="46.45327" lon="-0.84064">
        <ele>5</ele>
        <time>2015-10-26T09:39:15Z</time>
      </trkpt>
      <trkpt lat="46.45309" lon="-0.84072">
        <ele>5</ele>
        <time>2015-10-26T09:39:28Z</time>
      </trkpt>
      <trkpt lat="46.4529" lon="-0.84079">
        <ele>5</ele>
        <time>2015-10-26T09:39:41Z</time>
      </trkpt>
      <trkpt lat="46.45272" lon="-0.84085">
        <ele>5</ele>
        <time>2015-10-26T09:39:55Z</time>
      </trkpt>
      <trkpt lat="46.45254" lon="-0.84091">
        <ele>5</ele>
        <time>2015-10-26T09:40:08Z</time>
      </trkpt>
      <trkpt lat="46.45235" lon="-0.84098">
        <ele>5</ele>
        <time>2015-10-26T09:40:22Z</time>
      </trkpt>
      <trkpt lat="46.45218" lon="-0.84105">
        <ele>5</ele>
        <time>2015-10-26T09:40:35Z</time>
      </trkpt>
      <trkpt lat="46.452" lon="-0.84112">
        <ele>5</ele>
        <time>2015-10-26T09:40:48Z</time>
      </trkpt>
      <trkpt lat="46.45182" lon="-0.8412">
        <ele>4.9</ele>
        <time>2015-10-26T09:41:02Z</time>
      </trkpt>
      <trkpt lat="46.45163" lon="-0.84127">
        <ele>4.5</ele>
        <time>2015-10-26T09:41:16Z</time>
      </trkpt>
      <trkpt lat="46.45145" lon="-0.84134">
        <ele>4.8</ele>
        <time>2015-10-26T09:41:30Z</time>
      </trkpt>
      <trkpt lat="46.45127" lon="-0.84141">
        <ele>5</ele>
        <time>2015-10-26T09:41:43Z</time>
      </trkpt>
      <trkpt lat="46.45124" lon="-0.84141">
        <ele>5</ele>
        <time>2015-10-26T09:41:45Z</time>
      </trkpt>
      <trkpt lat="46.45118" lon="-0.84144">
        <ele>4.9</ele>
        <time>2015-10-26T09:41:50Z</time>
      </trkpt>
      <trkpt lat="46.45099" lon="-0.8415">
        <ele>4.3</ele>
        <time>2015-10-26T09:42:03Z</time>
      </trkpt>
      <trkpt lat="46.45082" lon="-0.84157">
        <ele>4</ele>
        <time>2015-10-26T09:42:16Z</time>
      </trkpt>
      <trkpt lat="46.45064" lon="-0.84164">
        <ele>4.6</ele>
        <time>2015-10-26T09:42:29Z</time>
      </trkpt>
      <trkpt lat="46.45046" lon="-0.84173">
        <ele>4.5</ele>
        <time>2015-10-26T09:42:42Z</time>
      </trkpt>
      <trkpt lat="46.45029" lon="-0.84179">
        <ele>4</ele>
        <time>2015-10-26T09:42:55Z</time>
      </trkpt>
      <trkpt lat="46.4501" lon="-0.84186">
        <ele>4</ele>
        <time>2015-10-26T09:43:09Z</time>
      </trkpt>
      <trkpt lat="46.44993" lon="-0.84193">
        <ele>4</ele>
        <time>2015-10-26T09:43:27Z</time>
      </trkpt>
      <trkpt lat="46.44992" lon="-0.84193">
        <ele>4</ele>
        <time>2015-10-26T09:43:28Z</time>
      </trkpt>
      <trkpt lat="46.44974" lon="-0.842">
        <ele>4</ele>
        <time>2015-10-26T09:43:42Z</time>
      </trkpt>
      <trkpt lat="46.44955" lon="-0.84207">
        <ele>4.3</ele>
        <time>2015-10-26T09:43:57Z</time>
      </trkpt>
      <trkpt lat="46.44937" lon="-0.84212">
        <ele>4.7</ele>
        <time>2015-10-26T09:44:11Z</time>
      </trkpt>
      <trkpt lat="46.4492" lon="-0.84211">
        <ele>5</ele>
        <time>2015-10-26T09:44:26Z</time>
      </trkpt>
      <trkpt lat="46.44918" lon="-0.8421">
        <ele>5</ele>
        <time>2015-10-26T09:46:14Z</time>
      </trkpt>
      <trkpt lat="46.44922" lon="-0.84186">
        <ele>4.9</ele>
        <time>2015-10-26T09:46:29Z</time>
      </trkpt>
      <trkpt lat="46.44934" lon="-0.84166">
        <ele>5</ele>
        <time>2015-10-26T09:46:42Z</time>
      </trkpt>
      <trkpt lat="46.44944" lon="-0.84143">
        <ele>5</ele>
        <time>2015-10-26T09:46:55Z</time>
      </trkpt>
      <trkpt lat="46.44954" lon="-0.84121">
        <ele>4.7</ele>
        <time>2015-10-26T09:47:08Z</time>
      </trkpt>
      <trkpt lat="46.44965" lon="-0.841">
        <ele>4.6</ele>
        <time>2015-10-26T09:47:21Z</time>
      </trkpt>
      <trkpt lat="46.44968" lon="-0.84095">
        <ele>4.7</ele>
        <time>2015-10-26T09:47:24Z</time>
      </trkpt>
      <trkpt lat="46.44977" lon="-0.84071">
        <ele>4.9</ele>
        <time>2015-10-26T09:47:37Z</time>
      </trkpt>
      <trkpt lat="46.44987" lon="-0.84047">
        <ele>5</ele>
        <time>2015-10-26T09:47:50Z</time>
      </trkpt>
      <trkpt lat="46.44997" lon="-0.84024">
        <ele>5</ele>
        <time>2015-10-26T09:48:03Z</time>
      </trkpt>
      <trkpt lat="46.45009" lon="-0.84002">
        <ele>5</ele>
        <time>2015-10-26T09:48:16Z</time>
      </trkpt>
      <trkpt lat="46.4502" lon="-0.83979">
        <ele>5.5</ele>
        <time>2015-10-26T09:48:29Z</time>
      </trkpt>
      <trkpt lat="46.45029" lon="-0.83955">
        <ele>5.3</ele>
        <time>2015-10-26T09:48:42Z</time>
      </trkpt>
      <trkpt lat="46.45039" lon="-0.83932">
        <ele>4.5</ele>
        <time>2015-10-26T09:48:54Z</time>
      </trkpt>
      <trkpt lat="46.45047" lon="-0.83907">
        <ele>4.8</ele>
        <time>2015-10-26T09:49:07Z</time>
      </trkpt>
      <trkpt lat="46.45053" lon="-0.83882">
        <ele>5.5</ele>
        <time>2015-10-26T09:49:19Z</time>
      </trkpt>
      <trkpt lat="46.45059" lon="-0.83857">
        <ele>4.2</ele>
        <time>2015-10-26T09:49:31Z</time>
      </trkpt>
      <trkpt lat="46.45067" lon="-0.83832">
        <ele>4.6</ele>
        <time>2015-10-26T09:49:43Z</time>
      </trkpt>
      <trkpt lat="46.45075" lon="-0.83809">
        <ele>4.9</ele>
        <time>2015-10-26T09:49:55Z</time>
      </trkpt>
      <trkpt lat="46.45084" lon="-0.83785">
        <ele>5</ele>
        <time>2015-10-26T09:50:07Z</time>
      </trkpt>
      <trkpt lat="46.45092" lon="-0.8376">
        <ele>4.3</ele>
        <time>2015-10-26T09:50:19Z</time>
      </trkpt>
      <trkpt lat="46.451" lon="-0.83735">
        <ele>4.3</ele>
        <time>2015-10-26T09:50:32Z</time>
      </trkpt>
      <trkpt lat="46.45108" lon="-0.83709">
        <ele>4.9</ele>
        <time>2015-10-26T09:50:44Z</time>
      </trkpt>
      <trkpt lat="46.45115" lon="-0.83684">
        <ele>4.9</ele>
        <time>2015-10-26T09:50:56Z</time>
      </trkpt>
      <trkpt lat="46.45122" lon="-0.83658">
        <ele>4.7</ele>
        <time>2015-10-26T09:51:09Z</time>
      </trkpt>
      <trkpt lat="46.45127" lon="-0.83638">
        <ele>5</ele>
        <time>2015-10-26T09:51:20Z</time>
      </trkpt>
      <trkpt lat="46.45113" lon="-0.8363">
        <ele>5</ele>
        <time>2015-10-26T09:51:40Z</time>
      </trkpt>
      <trkpt lat="46.45094" lon="-0.83632">
        <ele>5</ele>
        <time>2015-10-26T09:51:56Z</time>
      </trkpt>
      <trkpt lat="46.45076" lon="-0.83635">
        <ele>5</ele>
        <time>2015-10-26T09:52:10Z</time>
      </trkpt>
      <trkpt lat="46.4506" lon="-0.83639">
        <ele>5</ele>
        <time>2015-10-26T09:52:22Z</time>
      </trkpt>
      <trkpt lat="46.45042" lon="-0.8364">
        <ele>5</ele>
        <time>2015-10-26T09:52:36Z</time>
      </trkpt>
      <trkpt lat="46.45024" lon="-0.83643">
        <ele>5</ele>
        <time>2015-10-26T09:52:49Z</time>
      </trkpt>
      <trkpt lat="46.45006" lon="-0.83644">
        <ele>5</ele>
        <time>2015-10-26T09:53:04Z</time>
      </trkpt>
      <trkpt lat="46.44997" lon="-0.83645">
        <ele>5</ele>
        <time>2015-10-26T09:53:12Z</time>
      </trkpt>
      <trkpt lat="46.44979" lon="-0.83648">
        <ele>5</ele>
        <time>2015-10-26T09:53:27Z</time>
      </trkpt>
      <trkpt lat="46.44961" lon="-0.83652">
        <ele>5.2</ele>
        <time>2015-10-26T09:53:41Z</time>
      </trkpt>
      <trkpt lat="46.44942" lon="-0.83653">
        <ele>5.3</ele>
        <time>2015-10-26T09:53:57Z</time>
      </trkpt>
      <trkpt lat="46.44925" lon="-0.83657">
        <ele>3.7</ele>
        <time>2015-10-26T09:54:16Z</time>
      </trkpt>
      <trkpt lat="46.44906" lon="-0.83663">
        <ele>4.4</ele>
        <time>2015-10-26T09:54:40Z</time>
      </trkpt>
      <trkpt lat="46.44889" lon="-0.83669">
        <ele>6.8</ele>
        <time>2015-10-26T09:54:57Z</time>
      </trkpt>
      <trkpt lat="46.4487" lon="-0.83664">
        <ele>6.7</ele>
        <time>2015-10-26T09:55:11Z</time>
      </trkpt>
      <trkpt lat="46.44865" lon="-0.83668">
        <ele>7</ele>
        <time>2015-10-26T09:55:16Z</time>
      </trkpt>
      <trkpt lat="46.44852" lon="-0.83686">
        <ele>5.7</ele>
        <time>2015-10-26T09:55:30Z</time>
      </trkpt>
      <trkpt lat="46.4485" lon="-0.83689">
        <ele>5.5</ele>
        <time>2015-10-26T09:55:32Z</time>
      </trkpt>
      <trkpt lat="46.4484" lon="-0.8371">
        <ele>5.1</ele>
        <time>2015-10-26T09:55:44Z</time>
      </trkpt>
      <trkpt lat="46.44834" lon="-0.83712">
        <ele>4.9</ele>
        <time>2015-10-26T09:55:50Z</time>
      </trkpt>
      <trkpt lat="46.44829" lon="-0.83704">
        <ele>4</ele>
        <time>2015-10-26T09:55:56Z</time>
      </trkpt>
      <trkpt lat="46.44815" lon="-0.83687">
        <ele>4</ele>
        <time>2015-10-26T09:56:10Z</time>
      </trkpt>
      <trkpt lat="46.44814" lon="-0.83687">
        <ele>4.1</ele>
        <time>2015-10-26T09:56:12Z</time>
      </trkpt>
      <trkpt lat="46.44807" lon="-0.83679">
        <ele>5</ele>
        <time>2015-10-26T09:57:48Z</time>
      </trkpt>
      <trkpt lat="46.44803" lon="-0.83674">
        <ele>5.5</ele>
        <time>2015-10-26T09:58:05Z</time>
      </trkpt>
      <trkpt lat="46.44787" lon="-0.83661">
        <ele>5.3</ele>
        <time>2015-10-26T09:58:19Z</time>
      </trkpt>
      <trkpt lat="46.4477" lon="-0.83649">
        <ele>5</ele>
        <time>2015-10-26T09:58:38Z</time>
      </trkpt>
      <trkpt lat="46.44753" lon="-0.83639">
        <ele>5</ele>
        <time>2015-10-26T09:58:52Z</time>
      </trkpt>
      <trkpt lat="46.44736" lon="-0.83628">
        <ele>5.4</ele>
        <time>2015-10-26T09:59:05Z</time>
      </trkpt>
      <trkpt lat="46.44718" lon="-0.83618">
        <ele>6.3</ele>
        <time>2015-10-26T09:59:18Z</time>
      </trkpt>
      <trkpt lat="46.447" lon="-0.83608">
        <ele>5.4</ele>
        <time>2015-10-26T09:59:32Z</time>
      </trkpt>
      <trkpt lat="46.44683" lon="-0.83599">
        <ele>5</ele>
        <time>2015-10-26T09:59:44Z</time>
      </trkpt>
      <trkpt lat="46.44666" lon="-0.83586">
        <ele>5</ele>
        <time>2015-10-26T09:59:57Z</time>
      </trkpt>
      <trkpt lat="46.4465" lon="-0.83574">
        <ele>5</ele>
        <time>2015-10-26T10:00:10Z</time>
      </trkpt>
      <trkpt lat="46.44634" lon="-0.83562">
        <ele>5</ele>
        <time>2015-10-26T10:00:23Z</time>
      </trkpt>
      <trkpt lat="46.44623" lon="-0.83541">
        <ele>5</ele>
        <time>2015-10-26T10:00:41Z</time>
      </trkpt>
      <trkpt lat="46.44623" lon="-0.83515">
        <ele>5</ele>
        <time>2015-10-26T10:00:54Z</time>
      </trkpt>
      <trkpt lat="46.44622" lon="-0.83489">
        <ele>5</ele>
        <time>2015-10-26T10:01:06Z</time>
      </trkpt>
      <trkpt lat="46.44619" lon="-0.83461">
        <ele>5</ele>
        <time>2015-10-26T10:01:20Z</time>
      </trkpt>
      <trkpt lat="46.44615" lon="-0.83435">
        <ele>5</ele>
        <time>2015-10-26T10:01:33Z</time>
      </trkpt>
      <trkpt lat="46.4461" lon="-0.83409">
        <ele>5</ele>
        <time>2015-10-26T10:01:45Z</time>
      </trkpt>
      <trkpt lat="46.44605" lon="-0.83383">
        <ele>5.2</ele>
        <time>2015-10-26T10:01:58Z</time>
      </trkpt>
      <trkpt lat="46.44602" lon="-0.83356">
        <ele>5.5</ele>
        <time>2015-10-26T10:02:13Z</time>
      </trkpt>
      <trkpt lat="46.446" lon="-0.83328">
        <ele>6</ele>
        <time>2015-10-26T10:02:27Z</time>
      </trkpt>
      <trkpt lat="46.446" lon="-0.83301">
        <ele>6</ele>
        <time>2015-10-26T10:02:40Z</time>
      </trkpt>
      <trkpt lat="46.446" lon="-0.83273">
        <ele>6</ele>
        <time>2015-10-26T10:02:53Z</time>
      </trkpt>
      <trkpt lat="46.44605" lon="-0.83246">
        <ele>6</ele>
        <time>2015-10-26T10:03:06Z</time>
      </trkpt>
      <trkpt lat="46.44616" lon="-0.83223">
        <ele>6</ele>
        <time>2015-10-26T10:03:20Z</time>
      </trkpt>
      <trkpt lat="46.44629" lon="-0.83206">
        <ele>6</ele>
        <time>2015-10-26T10:03:33Z</time>
      </trkpt>
      <trkpt lat="46.44643" lon="-0.83189">
        <ele>6.2</ele>
        <time>2015-10-26T10:03:46Z</time>
      </trkpt>
      <trkpt lat="46.44657" lon="-0.83169">
        <ele>6.9</ele>
        <time>2015-10-26T10:03:59Z</time>
      </trkpt>
      <trkpt lat="46.44671" lon="-0.83151">
        <ele>6.9</ele>
        <time>2015-10-26T10:04:12Z</time>
      </trkpt>
      <trkpt lat="46.44686" lon="-0.83134">
        <ele>7</ele>
        <time>2015-10-26T10:04:26Z</time>
      </trkpt>
      <trkpt lat="46.44699" lon="-0.83114">
        <ele>7</ele>
        <time>2015-10-26T10:04:38Z</time>
      </trkpt>
      <trkpt lat="46.44713" lon="-0.83096">
        <ele>7</ele>
        <time>2015-10-26T10:04:50Z</time>
      </trkpt>
      <trkpt lat="46.44726" lon="-0.83077">
        <ele>7</ele>
        <time>2015-10-26T10:05:03Z</time>
      </trkpt>
      <trkpt lat="46.44739" lon="-0.8306">
        <ele>7</ele>
        <time>2015-10-26T10:05:16Z</time>
      </trkpt>
      <trkpt lat="46.44754" lon="-0.83043">
        <ele>7</ele>
        <time>2015-10-26T10:05:30Z</time>
      </trkpt>
      <trkpt lat="46.44762" lon="-0.8302">
        <ele>7</ele>
        <time>2015-10-26T10:05:43Z</time>
      </trkpt>
      <trkpt lat="46.4476" lon="-0.82994">
        <ele>7</ele>
        <time>2015-10-26T10:05:56Z</time>
      </trkpt>
      <trkpt lat="46.4476" lon="-0.82985">
        <ele>7</ele>
        <time>2015-10-26T10:06:02Z</time>
      </trkpt>
      <trkpt lat="46.44769" lon="-0.82982">
        <ele>7</ele>
        <time>2015-10-26T10:06:09Z</time>
      </trkpt>
      <trkpt lat="46.44786" lon="-0.82991">
        <ele>7</ele>
        <time>2015-10-26T10:06:21Z</time>
      </trkpt>
      <trkpt lat="46.44791" lon="-0.82996">
        <ele>7</ele>
        <time>2015-10-26T10:06:25Z</time>
      </trkpt>
      <trkpt lat="46.44806" lon="-0.83012">
        <ele>7</ele>
        <time>2015-10-26T10:06:40Z</time>
      </trkpt>
      <trkpt lat="46.44806" lon="-0.83012">
        <ele>7</ele>
        <time>2015-10-26T10:06:41Z</time>
      </trkpt>
      <trkpt lat="46.44812" lon="-0.83019">
        <ele>6.8</ele>
        <time>2015-10-26T10:06:49Z</time>
      </trkpt>
      <trkpt lat="46.44828" lon="-0.83033">
        <ele>6.3</ele>
        <time>2015-10-26T10:07:03Z</time>
      </trkpt>
      <trkpt lat="46.44845" lon="-0.83047">
        <ele>6.4</ele>
        <time>2015-10-26T10:07:18Z</time>
      </trkpt>
      <trkpt lat="46.44861" lon="-0.83061">
        <ele>6</ele>
        <time>2015-10-26T10:07:32Z</time>
      </trkpt>
      <trkpt lat="46.44876" lon="-0.83075">
        <ele>6</ele>
        <time>2015-10-26T10:07:46Z</time>
      </trkpt>
      <trkpt lat="46.44892" lon="-0.83088">
        <ele>6.1</ele>
        <time>2015-10-26T10:08:00Z</time>
      </trkpt>
      <trkpt lat="46.44905" lon="-0.83108">
        <ele>6.4</ele>
        <time>2015-10-26T10:08:13Z</time>
      </trkpt>
      <trkpt lat="46.44915" lon="-0.8313">
        <ele>6.1</ele>
        <time>2015-10-26T10:08:27Z</time>
      </trkpt>
      <trkpt lat="46.44928" lon="-0.8315">
        <ele>6</ele>
        <time>2015-10-26T10:08:40Z</time>
      </trkpt>
      <trkpt lat="46.44944" lon="-0.8316">
        <ele>6</ele>
        <time>2015-10-26T10:08:54Z</time>
      </trkpt>
      <trkpt lat="46.44945" lon="-0.83152">
        <ele>6</ele>
        <time>2015-10-26T10:10:18Z</time>
      </trkpt>
      <trkpt lat="46.44948" lon="-0.83142">
        <ele>5.6</ele>
        <time>2015-10-26T10:12:06Z</time>
      </trkpt>
      <trkpt lat="46.44949" lon="-0.83141">
        <ele>5.5</ele>
        <time>2015-10-26T10:12:07Z</time>
      </trkpt>
      <trkpt lat="46.44958" lon="-0.83118">
        <ele>5.6</ele>
        <time>2015-10-26T10:12:22Z</time>
      </trkpt>
      <trkpt lat="46.44972" lon="-0.831">
        <ele>5.6</ele>
        <time>2015-10-26T10:12:34Z</time>
      </trkpt>
      <trkpt lat="46.44984" lon="-0.83081">
        <ele>4.3</ele>
        <time>2015-10-26T10:12:47Z</time>
      </trkpt>
      <trkpt lat="46.4499" lon="-0.83074">
        <ele>4.5</ele>
        <time>2015-10-26T10:12:54Z</time>
      </trkpt>
      <trkpt lat="46.45003" lon="-0.83054">
        <ele>5.6</ele>
        <time>2015-10-26T10:13:08Z</time>
      </trkpt>
      <trkpt lat="46.45015" lon="-0.83034">
        <ele>4.9</ele>
        <time>2015-10-26T10:13:21Z</time>
      </trkpt>
      <trkpt lat="46.45027" lon="-0.83012">
        <ele>5</ele>
        <time>2015-10-26T10:13:34Z</time>
      </trkpt>
      <trkpt lat="46.45038" lon="-0.82989">
        <ele>4.4</ele>
        <time>2015-10-26T10:13:48Z</time>
      </trkpt>
      <trkpt lat="46.45046" lon="-0.82972">
        <ele>4.4</ele>
        <time>2015-10-26T10:13:58Z</time>
      </trkpt>
      <trkpt lat="46.45053" lon="-0.82951">
        <ele>5.5</ele>
        <time>2015-10-26T10:14:09Z</time>
      </trkpt>
      <trkpt lat="46.45058" lon="-0.82925">
        <ele>5.7</ele>
        <time>2015-10-26T10:14:22Z</time>
      </trkpt>
      <trkpt lat="46.4506" lon="-0.82897">
        <ele>5.5</ele>
        <time>2015-10-26T10:14:35Z</time>
      </trkpt>
      <trkpt lat="46.4506" lon="-0.8287">
        <ele>5.5</ele>
        <time>2015-10-26T10:14:48Z</time>
      </trkpt>
      <trkpt lat="46.45062" lon="-0.82842">
        <ele>4.8</ele>
        <time>2015-10-26T10:15:01Z</time>
      </trkpt>
      <trkpt lat="46.45062" lon="-0.82816">
        <ele>4.5</ele>
        <time>2015-10-26T10:15:13Z</time>
      </trkpt>
      <trkpt lat="46.45065" lon="-0.82789">
        <ele>4.7</ele>
        <time>2015-10-26T10:15:25Z</time>
      </trkpt>
      <trkpt lat="46.45069" lon="-0.82763">
        <ele>4.5</ele>
        <time>2015-10-26T10:15:38Z</time>
      </trkpt>
      <trkpt lat="46.45073" lon="-0.82737">
        <ele>4.4</ele>
        <time>2015-10-26T10:15:51Z</time>
      </trkpt>
      <trkpt lat="46.45078" lon="-0.8271">
        <ele>5.1</ele>
        <time>2015-10-26T10:16:04Z</time>
      </trkpt>
      <trkpt lat="46.45083" lon="-0.82685">
        <ele>6</ele>
        <time>2015-10-26T10:16:17Z</time>
      </trkpt>
      <trkpt lat="46.45088" lon="-0.82659">
        <ele>5.5</ele>
        <time>2015-10-26T10:16:30Z</time>
      </trkpt>
      <trkpt lat="46.45093" lon="-0.82632">
        <ele>4.9</ele>
        <time>2015-10-26T10:16:43Z</time>
      </trkpt>
      <trkpt lat="46.45098" lon="-0.82607">
        <ele>4.6</ele>
        <time>2015-10-26T10:16:55Z</time>
      </trkpt>
      <trkpt lat="46.45106" lon="-0.82582">
        <ele>5.2</ele>
        <time>2015-10-26T10:17:07Z</time>
      </trkpt>
      <trkpt lat="46.45112" lon="-0.82557">
        <ele>5.8</ele>
        <time>2015-10-26T10:17:20Z</time>
      </trkpt>
      <trkpt lat="46.45121" lon="-0.82532">
        <ele>5</ele>
        <time>2015-10-26T10:17:33Z</time>
      </trkpt>
      <trkpt lat="46.45128" lon="-0.82507">
        <ele>4.2</ele>
        <time>2015-10-26T10:17:46Z</time>
      </trkpt>
      <trkpt lat="46.4513" lon="-0.825">
        <ele>4</ele>
        <time>2015-10-26T10:17:50Z</time>
      </trkpt>
      <trkpt lat="46.45137" lon="-0.82474">
        <ele>5.8</ele>
        <time>2015-10-26T10:18:03Z</time>
      </trkpt>
      <trkpt lat="46.45145" lon="-0.82448">
        <ele>5.3</ele>
        <time>2015-10-26T10:18:16Z</time>
      </trkpt>
      <trkpt lat="46.45154" lon="-0.82424">
        <ele>4.7</ele>
        <time>2015-10-26T10:18:29Z</time>
      </trkpt>
      <trkpt lat="46.45165" lon="-0.82403">
        <ele>5.1</ele>
        <time>2015-10-26T10:18:42Z</time>
      </trkpt>
      <trkpt lat="46.45177" lon="-0.82382">
        <ele>5.2</ele>
        <time>2015-10-26T10:18:55Z</time>
      </trkpt>
      <trkpt lat="46.45189" lon="-0.82361">
        <ele>6</ele>
        <time>2015-10-26T10:19:08Z</time>
      </trkpt>
      <trkpt lat="46.45203" lon="-0.82342">
        <ele>5.7</ele>
        <time>2015-10-26T10:19:22Z</time>
      </trkpt>
      <trkpt lat="46.45216" lon="-0.82324">
        <ele>6</ele>
        <time>2015-10-26T10:19:35Z</time>
      </trkpt>
      <trkpt lat="46.45233" lon="-0.8231">
        <ele>5.5</ele>
        <time>2015-10-26T10:19:50Z</time>
      </trkpt>
      <trkpt lat="46.45249" lon="-0.82297">
        <ele>5.3</ele>
        <time>2015-10-26T10:20:03Z</time>
      </trkpt>
      <trkpt lat="46.45263" lon="-0.82285">
        <ele>6</ele>
        <time>2015-10-26T10:20:18Z</time>
      </trkpt>
      <trkpt lat="46.45264" lon="-0.82282">
        <ele>6.2</ele>
        <time>2015-10-26T10:20:38Z</time>
      </trkpt>
      <trkpt lat="46.45277" lon="-0.82279">
        <ele>6.8</ele>
        <time>2015-10-26T10:22:03Z</time>
      </trkpt>
      <trkpt lat="46.45295" lon="-0.82276">
        <ele>6.5</ele>
        <time>2015-10-26T10:22:16Z</time>
      </trkpt>
      <trkpt lat="46.453" lon="-0.82273">
        <ele>6.7</ele>
        <time>2015-10-26T10:22:20Z</time>
      </trkpt>
      <trkpt lat="46.45318" lon="-0.82268">
        <ele>6.7</ele>
        <time>2015-10-26T10:22:31Z</time>
      </trkpt>
      <trkpt lat="46.45337" lon="-0.82265">
        <ele>6.6</ele>
        <time>2015-10-26T10:22:45Z</time>
      </trkpt>
      <trkpt lat="46.45355" lon="-0.82259">
        <ele>6.4</ele>
        <time>2015-10-26T10:22:59Z</time>
      </trkpt>
      <trkpt lat="46.45371" lon="-0.82246">
        <ele>5.7</ele>
        <time>2015-10-26T10:23:11Z</time>
      </trkpt>
      <trkpt lat="46.45383" lon="-0.82226">
        <ele>6.4</ele>
        <time>2015-10-26T10:23:24Z</time>
      </trkpt>
      <trkpt lat="46.4539" lon="-0.822">
        <ele>6.8</ele>
        <time>2015-10-26T10:23:37Z</time>
      </trkpt>
      <trkpt lat="46.45392" lon="-0.82173">
        <ele>5.9</ele>
        <time>2015-10-26T10:23:51Z</time>
      </trkpt>
      <trkpt lat="46.45395" lon="-0.82154">
        <ele>5.4</ele>
        <time>2015-10-26T10:24:01Z</time>
      </trkpt>
      <trkpt lat="46.45403" lon="-0.8213">
        <ele>5.5</ele>
        <time>2015-10-26T10:24:13Z</time>
      </trkpt>
      <trkpt lat="46.45413" lon="-0.82107">
        <ele>6.7</ele>
        <time>2015-10-26T10:24:25Z</time>
      </trkpt>
      <trkpt lat="46.45423" lon="-0.82085">
        <ele>5.3</ele>
        <time>2015-10-26T10:24:38Z</time>
      </trkpt>
      <trkpt lat="46.45428" lon="-0.82074">
        <ele>5.1</ele>
        <time>2015-10-26T10:24:44Z</time>
      </trkpt>
      <trkpt lat="46.45432" lon="-0.82048">
        <ele>5.6</ele>
        <time>2015-10-26T10:24:58Z</time>
      </trkpt>
      <trkpt lat="46.45432" lon="-0.82022">
        <ele>5.6</ele>
        <time>2015-10-26T10:25:11Z</time>
      </trkpt>
      <trkpt lat="46.45432" lon="-0.81997">
        <ele>4.4</ele>
        <time>2015-10-26T10:25:23Z</time>
      </trkpt>
      <trkpt lat="46.45429" lon="-0.8197">
        <ele>4.7</ele>
        <time>2015-10-26T10:25:36Z</time>
      </trkpt>
      <trkpt lat="46.45429" lon="-0.81968">
        <ele>4.6</ele>
        <time>2015-10-26T10:25:37Z</time>
      </trkpt>
      <trkpt lat="46.45431" lon="-0.81942">
        <ele>4.5</ele>
        <time>2015-10-26T10:25:49Z</time>
      </trkpt>
      <trkpt lat="46.45435" lon="-0.81915">
        <ele>5.4</ele>
        <time>2015-10-26T10:26:01Z</time>
      </trkpt>
      <trkpt lat="46.45441" lon="-0.8189">
        <ele>6.8</ele>
        <time>2015-10-26T10:26:13Z</time>
      </trkpt>
      <trkpt lat="46.4545" lon="-0.81866">
        <ele>5.6</ele>
        <time>2015-10-26T10:26:27Z</time>
      </trkpt>
      <trkpt lat="46.45455" lon="-0.81839">
        <ele>5.1</ele>
        <time>2015-10-26T10:26:40Z</time>
      </trkpt>
      <trkpt lat="46.4546" lon="-0.81813">
        <ele>5.3</ele>
        <time>2015-10-26T10:26:53Z</time>
      </trkpt>
      <trkpt lat="46.45464" lon="-0.81785">
        <ele>5.8</ele>
        <time>2015-10-26T10:27:06Z</time>
      </trkpt>
      <trkpt lat="46.4547" lon="-0.81759">
        <ele>6.6</ele>
        <time>2015-10-26T10:27:19Z</time>
      </trkpt>
      <trkpt lat="46.45477" lon="-0.8174">
        <ele>6.1</ele>
        <time>2015-10-26T10:27:30Z</time>
      </trkpt>
      <trkpt lat="46.45462" lon="-0.81723">
        <ele>6</ele>
        <time>2015-10-26T10:27:47Z</time>
      </trkpt>
      <trkpt lat="46.4546" lon="-0.8172">
        <ele>6</ele>
        <time>2015-10-26T10:27:49Z</time>
      </trkpt>
      <trkpt lat="46.45451" lon="-0.8171">
        <ele>6</ele>
        <time>2015-10-26T10:28:05Z</time>
      </trkpt>
      <trkpt lat="46.45436" lon="-0.81693">
        <ele>6</ele>
        <time>2015-10-26T10:28:18Z</time>
      </trkpt>
      <trkpt lat="46.45423" lon="-0.81676">
        <ele>6</ele>
        <time>2015-10-26T10:28:34Z</time>
      </trkpt>
      <trkpt lat="46.45423" lon="-0.81676">
        <ele>6</ele>
        <time>2015-10-26T10:28:35Z</time>
      </trkpt>
      <trkpt lat="46.45422" lon="-0.81675">
        <ele>6</ele>
        <time>2015-10-26T10:28:41Z</time>
      </trkpt>
      <trkpt lat="46.45418" lon="-0.8167">
        <ele>6</ele>
        <time>2015-10-26T10:28:45Z</time>
      </trkpt>
      <trkpt lat="46.45404" lon="-0.81653">
        <ele>6</ele>
        <time>2015-10-26T10:28:58Z</time>
      </trkpt>
      <trkpt lat="46.45389" lon="-0.81637">
        <ele>6</ele>
        <time>2015-10-26T10:29:11Z</time>
      </trkpt>
      <trkpt lat="46.45374" lon="-0.8162">
        <ele>6</ele>
        <time>2015-10-26T10:29:24Z</time>
      </trkpt>
      <trkpt lat="46.45361" lon="-0.81602">
        <ele>6</ele>
        <time>2015-10-26T10:29:37Z</time>
      </trkpt>
      <trkpt lat="46.45346" lon="-0.81584">
        <ele>5.5</ele>
        <time>2015-10-26T10:29:51Z</time>
      </trkpt>
      <trkpt lat="46.45345" lon="-0.81584">
        <ele>5.4</ele>
        <time>2015-10-26T10:29:52Z</time>
      </trkpt>
      <trkpt lat="46.45341" lon="-0.81588">
        <ele>5.4</ele>
        <time>2015-10-26T10:29:56Z</time>
      </trkpt>
      <trkpt lat="46.45327" lon="-0.81607">
        <ele>5.9</ele>
        <time>2015-10-26T10:30:10Z</time>
      </trkpt>
      <trkpt lat="46.4531" lon="-0.816">
        <ele>5.9</ele>
        <time>2015-10-26T10:30:25Z</time>
      </trkpt>
      <trkpt lat="46.45304" lon="-0.81584">
        <ele>6</ele>
        <time>2015-10-26T10:30:34Z</time>
      </trkpt>
      <trkpt lat="46.45298" lon="-0.81562">
        <ele>5.4</ele>
        <time>2015-10-26T10:30:45Z</time>
      </trkpt>
      <trkpt lat="46.45289" lon="-0.81539">
        <ele>5.6</ele>
        <time>2015-10-26T10:30:57Z</time>
      </trkpt>
      <trkpt lat="46.4528" lon="-0.81516">
        <ele>6.4</ele>
        <time>2015-10-26T10:31:10Z</time>
      </trkpt>
      <trkpt lat="46.45272" lon="-0.81493">
        <ele>6.9</ele>
        <time>2015-10-26T10:31:22Z</time>
      </trkpt>
      <trkpt lat="46.45262" lon="-0.8147">
        <ele>7</ele>
        <time>2015-10-26T10:31:36Z</time>
      </trkpt>
      <trkpt lat="46.45249" lon="-0.81449">
        <ele>7</ele>
        <time>2015-10-26T10:31:48Z</time>
      </trkpt>
      <trkpt lat="46.45247" lon="-0.81448">
        <ele>7</ele>
        <time>2015-10-26T10:31:49Z</time>
      </trkpt>
      <trkpt lat="46.45244" lon="-0.81441">
        <ele>7</ele>
        <time>2015-10-26T10:31:53Z</time>
      </trkpt>
      <trkpt lat="46.45238" lon="-0.81417">
        <ele>7.4</ele>
        <time>2015-10-26T10:32:07Z</time>
      </trkpt>
      <trkpt lat="46.45239" lon="-0.81416">
        <ele>7.4</ele>
        <time>2015-10-26T10:32:08Z</time>
      </trkpt>
      <trkpt lat="46.45239" lon="-0.81411">
        <ele>7.4</ele>
        <time>2015-10-26T10:33:08Z</time>
      </trkpt>
      <trkpt lat="46.45256" lon="-0.81404">
        <ele>7.4</ele>
        <time>2015-10-26T10:33:30Z</time>
      </trkpt>
      <trkpt lat="46.45275" lon="-0.814">
        <ele>7.6</ele>
        <time>2015-10-26T10:33:43Z</time>
      </trkpt>
      <trkpt lat="46.45291" lon="-0.8139">
        <ele>8</ele>
        <time>2015-10-26T10:34:09Z</time>
      </trkpt>
      <trkpt lat="46.45306" lon="-0.81373">
        <ele>8</ele>
        <time>2015-10-26T10:34:29Z</time>
      </trkpt>
      <trkpt lat="46.45321" lon="-0.81358">
        <ele>8</ele>
        <time>2015-10-26T10:34:44Z</time>
      </trkpt>
      <trkpt lat="46.45321" lon="-0.81358">
        <ele>8</ele>
        <time>2015-10-26T10:34:45Z</time>
      </trkpt>
      <trkpt lat="46.45327" lon="-0.81356">
        <ele>8</ele>
        <time>2015-10-26T10:34:50Z</time>
      </trkpt>
      <trkpt lat="46.45343" lon="-0.81344">
        <ele>8</ele>
        <time>2015-10-26T10:35:03Z</time>
      </trkpt>
      <trkpt lat="46.45358" lon="-0.81329">
        <ele>8</ele>
        <time>2015-10-26T10:35:15Z</time>
      </trkpt>
      <trkpt lat="46.45372" lon="-0.8131">
        <ele>7.9</ele>
        <time>2015-10-26T10:35:29Z</time>
      </trkpt>
      <trkpt lat="46.45386" lon="-0.81293">
        <ele>8</ele>
        <time>2015-10-26T10:35:42Z</time>
      </trkpt>
      <trkpt lat="46.45401" lon="-0.81274">
        <ele>8</ele>
        <time>2015-10-26T10:35:55Z</time>
      </trkpt>
      <trkpt lat="46.45415" lon="-0.81256">
        <ele>8</ele>
        <time>2015-10-26T10:36:08Z</time>
      </trkpt>
      <trkpt lat="46.45431" lon="-0.81241">
        <ele>8</ele>
        <time>2015-10-26T10:36:21Z</time>
      </trkpt>
      <trkpt lat="46.45447" lon="-0.81224">
        <ele>7.9</ele>
        <time>2015-10-26T10:36:34Z</time>
      </trkpt>
      <trkpt lat="46.45461" lon="-0.81207">
        <ele>7.5</ele>
        <time>2015-10-26T10:36:48Z</time>
      </trkpt>
      <trkpt lat="46.45477" lon="-0.81193">
        <ele>7.8</ele>
        <time>2015-10-26T10:37:02Z</time>
      </trkpt>
      <trkpt lat="46.4549" lon="-0.81174">
        <ele>7.8</ele>
        <time>2015-10-26T10:37:15Z</time>
      </trkpt>
      <trkpt lat="46.45495" lon="-0.81169">
        <ele>7.9</ele>
        <time>2015-10-26T10:37:19Z</time>
      </trkpt>
      <trkpt lat="46.45508" lon="-0.81152">
        <ele>7.9</ele>
        <time>2015-10-26T10:37:32Z</time>
      </trkpt>
      <trkpt lat="46.45523" lon="-0.81136">
        <ele>8</ele>
        <time>2015-10-26T10:37:44Z</time>
      </trkpt>
      <trkpt lat="46.45538" lon="-0.81121">
        <ele>7.9</ele>
        <time>2015-10-26T10:37:56Z</time>
      </trkpt>
      <trkpt lat="46.45553" lon="-0.81105">
        <ele>8</ele>
        <time>2015-10-26T10:38:09Z</time>
      </trkpt>
      <trkpt lat="46.45568" lon="-0.81088">
        <ele>7.6</ele>
        <time>2015-10-26T10:38:22Z</time>
      </trkpt>
      <trkpt lat="46.45584" lon="-0.81074">
        <ele>7.3</ele>
        <time>2015-10-26T10:38:34Z</time>
      </trkpt>
      <trkpt lat="46.456" lon="-0.8106">
        <ele>7.3</ele>
        <time>2015-10-26T10:38:46Z</time>
      </trkpt>
      <trkpt lat="46.45614" lon="-0.81041">
        <ele>7.5</ele>
        <time>2015-10-26T10:39:00Z</time>
      </trkpt>
      <trkpt lat="46.45628" lon="-0.81027">
        <ele>7.4</ele>
        <time>2015-10-26T10:39:13Z</time>
      </trkpt>
      <trkpt lat="46.45638" lon="-0.81013">
        <ele>7.5</ele>
        <time>2015-10-26T10:39:23Z</time>
      </trkpt>
      <trkpt lat="46.45645" lon="-0.81004">
        <ele>7.7</ele>
        <time>2015-10-26T10:39:31Z</time>
      </trkpt>
      <trkpt lat="46.45654" lon="-0.80994">
        <ele>7.5</ele>
        <time>2015-10-26T10:39:40Z</time>
      </trkpt>
      <trkpt lat="46.45671" lon="-0.80982">
        <ele>7</ele>
        <time>2015-10-26T10:39:53Z</time>
      </trkpt>
      <trkpt lat="46.45687" lon="-0.8097">
        <ele>7</ele>
        <time>2015-10-26T10:40:05Z</time>
      </trkpt>
      <trkpt lat="46.45706" lon="-0.8096">
        <ele>7</ele>
        <time>2015-10-26T10:40:18Z</time>
      </trkpt>
      <trkpt lat="46.45724" lon="-0.80954">
        <ele>7</ele>
        <time>2015-10-26T10:40:30Z</time>
      </trkpt>
      <trkpt lat="46.45742" lon="-0.80946">
        <ele>7</ele>
        <time>2015-10-26T10:40:42Z</time>
      </trkpt>
      <trkpt lat="46.45754" lon="-0.80925">
        <ele>7</ele>
        <time>2015-10-26T10:40:54Z</time>
      </trkpt>
      <trkpt lat="46.45764" lon="-0.80903">
        <ele>7</ele>
        <time>2015-10-26T10:41:06Z</time>
      </trkpt>
      <trkpt lat="46.45772" lon="-0.80879">
        <ele>7.1</ele>
        <time>2015-10-26T10:41:19Z</time>
      </trkpt>
      <trkpt lat="46.45784" lon="-0.80859">
        <ele>7</ele>
        <time>2015-10-26T10:41:31Z</time>
      </trkpt>
      <trkpt lat="46.45785" lon="-0.80858">
        <ele>7</ele>
        <time>2015-10-26T10:41:32Z</time>
      </trkpt>
      <trkpt lat="46.45799" lon="-0.8084">
        <ele>7</ele>
        <time>2015-10-26T10:41:45Z</time>
      </trkpt>
      <trkpt lat="46.45814" lon="-0.80823">
        <ele>7.2</ele>
        <time>2015-10-26T10:41:57Z</time>
      </trkpt>
      <trkpt lat="46.45827" lon="-0.80806">
        <ele>7</ele>
        <time>2015-10-26T10:42:09Z</time>
      </trkpt>
      <trkpt lat="46.45838" lon="-0.80785">
        <ele>6.4</ele>
        <time>2015-10-26T10:42:23Z</time>
      </trkpt>
      <trkpt lat="46.45851" lon="-0.80765">
        <ele>5.5</ele>
        <time>2015-10-26T10:42:36Z</time>
      </trkpt>
      <trkpt lat="46.45858" lon="-0.80741">
        <ele>5.3</ele>
        <time>2015-10-26T10:42:49Z</time>
      </trkpt>
      <trkpt lat="46.4586" lon="-0.80715">
        <ele>5.4</ele>
        <time>2015-10-26T10:43:03Z</time>
      </trkpt>
      <trkpt lat="46.45861" lon="-0.80697">
        <ele>5.9</ele>
        <time>2015-10-26T10:43:12Z</time>
      </trkpt>
      <trkpt lat="46.45863" lon="-0.80689">
        <ele>6.2</ele>
        <time>2015-10-26T10:43:16Z</time>
      </trkpt>
      <trkpt lat="46.45868" lon="-0.80664">
        <ele>6.3</ele>
        <time>2015-10-26T10:43:29Z</time>
      </trkpt>
      <trkpt lat="46.45869" lon="-0.8066">
        <ele>6.3</ele>
        <time>2015-10-26T10:43:31Z</time>
      </trkpt>
      <trkpt lat="46.45873" lon="-0.80636">
        <ele>6.2</ele>
        <time>2015-10-26T10:43:57Z</time>
      </trkpt>
      <trkpt lat="46.45878" lon="-0.8062">
        <ele>5.6</ele>
        <time>2015-10-26T10:44:06Z</time>
      </trkpt>
      <trkpt lat="46.4588" lon="-0.80594">
        <ele>5.7</ele>
        <time>2015-10-26T10:44:20Z</time>
      </trkpt>
      <trkpt lat="46.45887" lon="-0.80569">
        <ele>6.2</ele>
        <time>2015-10-26T10:44:33Z</time>
      </trkpt>
      <trkpt lat="46.45895" lon="-0.80545">
        <ele>6.4</ele>
        <time>2015-10-26T10:44:46Z</time>
      </trkpt>
      <trkpt lat="46.45902" lon="-0.80519">
        <ele>6.2</ele>
        <time>2015-10-26T10:44:59Z</time>
      </trkpt>
      <trkpt lat="46.45914" lon="-0.80499">
        <ele>7.9</ele>
        <time>2015-10-26T10:45:12Z</time>
      </trkpt>
      <trkpt lat="46.45931" lon="-0.80486">
        <ele>7</ele>
        <time>2015-10-26T10:45:26Z</time>
      </trkpt>
      <trkpt lat="46.45944" lon="-0.80501">
        <ele>4.1</ele>
        <time>2015-10-26T10:45:44Z</time>
      </trkpt>
      <trkpt lat="46.45954" lon="-0.80523">
        <ele>6.3</ele>
        <time>2015-10-26T10:45:58Z</time>
      </trkpt>
      <trkpt lat="46.45955" lon="-0.80528">
        <ele>6.8</ele>
        <time>2015-10-26T10:46:04Z</time>
      </trkpt>
      <trkpt lat="46.45955" lon="-0.80546">
        <ele>7.3</ele>
        <time>2015-10-26T10:46:14Z</time>
      </trkpt>
      <trkpt lat="46.45957" lon="-0.80563">
        <ele>7.6</ele>
        <time>2015-10-26T10:46:24Z</time>
      </trkpt>
      <trkpt lat="46.45959" lon="-0.8059">
        <ele>7.4</ele>
        <time>2015-10-26T10:46:38Z</time>
      </trkpt>
      <trkpt lat="46.4596" lon="-0.80592">
        <ele>7.3</ele>
        <time>2015-10-26T10:46:39Z</time>
      </trkpt>
      <trkpt lat="46.45963" lon="-0.80619">
        <ele>7</ele>
        <time>2015-10-26T10:46:51Z</time>
      </trkpt>
      <trkpt lat="46.45968" lon="-0.80646">
        <ele>7</ele>
        <time>2015-10-26T10:47:03Z</time>
      </trkpt>
      <trkpt lat="46.45975" lon="-0.80672">
        <ele>7</ele>
        <time>2015-10-26T10:47:17Z</time>
      </trkpt>
      <trkpt lat="46.45978" lon="-0.80699">
        <ele>7</ele>
        <time>2015-10-26T10:47:30Z</time>
      </trkpt>
      <trkpt lat="46.45983" lon="-0.80725">
        <ele>7</ele>
        <time>2015-10-26T10:47:42Z</time>
      </trkpt>
      <trkpt lat="46.45987" lon="-0.80751">
        <ele>7</ele>
        <time>2015-10-26T10:47:55Z</time>
      </trkpt>
      <trkpt lat="46.45989" lon="-0.80762">
        <ele>7</ele>
        <time>2015-10-26T10:48:01Z</time>
      </trkpt>
      <trkpt lat="46.45991" lon="-0.8077">
        <ele>7</ele>
        <time>2015-10-26T10:48:06Z</time>
      </trkpt>
      <trkpt lat="46.45995" lon="-0.80787">
        <ele>7</ele>
        <time>2015-10-26T10:48:15Z</time>
      </trkpt>
      <trkpt lat="46.46" lon="-0.8079">
        <ele>7</ele>
        <time>2015-10-26T10:48:20Z</time>
      </trkpt>
      <trkpt lat="46.4601" lon="-0.80798">
        <ele>7</ele>
        <time>2015-10-26T10:48:28Z</time>
      </trkpt>
      <trkpt lat="46.46016" lon="-0.80797">
        <ele>7</ele>
        <time>2015-10-26T10:48:32Z</time>
      </trkpt>
      <trkpt lat="46.46034" lon="-0.80792">
        <ele>7</ele>
        <time>2015-10-26T10:48:45Z</time>
      </trkpt>
      <trkpt lat="46.46045" lon="-0.8079">
        <ele>7</ele>
        <time>2015-10-26T10:48:54Z</time>
      </trkpt>
      <trkpt lat="46.46053" lon="-0.80785">
        <ele>7</ele>
        <time>2015-10-26T10:49:03Z</time>
      </trkpt>
      <trkpt lat="46.46072" lon="-0.80778">
        <ele>7</ele>
        <time>2015-10-26T10:49:20Z</time>
      </trkpt>
      <trkpt lat="46.46089" lon="-0.80771">
        <ele>7</ele>
        <time>2015-10-26T10:49:34Z</time>
      </trkpt>
      <trkpt lat="46.46108" lon="-0.80766">
        <ele>7</ele>
        <time>2015-10-26T10:49:49Z</time>
      </trkpt>
      <trkpt lat="46.46125" lon="-0.80758">
        <ele>7</ele>
        <time>2015-10-26T10:50:01Z</time>
      </trkpt>
      <trkpt lat="46.46143" lon="-0.80752">
        <ele>7</ele>
        <time>2015-10-26T10:50:12Z</time>
      </trkpt>
      <trkpt lat="46.46161" lon="-0.80762">
        <ele>7</ele>
        <time>2015-10-26T10:50:28Z</time>
      </trkpt>
      <trkpt lat="46.46166" lon="-0.80785">
        <ele>7</ele>
        <time>2015-10-26T10:50:41Z</time>
      </trkpt>
      <trkpt lat="46.46161" lon="-0.80811">
        <ele>7</ele>
        <time>2015-10-26T10:50:54Z</time>
      </trkpt>
      <trkpt lat="46.46161" lon="-0.80824">
        <ele>7</ele>
        <time>2015-10-26T10:51:01Z</time>
      </trkpt>
      <trkpt lat="46.4616" lon="-0.80851">
        <ele>7.5</ele>
        <time>2015-10-26T10:51:18Z</time>
      </trkpt>
      <trkpt lat="46.46158" lon="-0.80877">
        <ele>7.3</ele>
        <time>2015-10-26T10:51:32Z</time>
      </trkpt>
      <trkpt lat="46.46161" lon="-0.80889">
        <ele>7</ele>
        <time>2015-10-26T10:51:40Z</time>
      </trkpt>
      <trkpt lat="46.4616" lon="-0.80896">
        <ele>7</ele>
        <time>2015-10-26T10:51:45Z</time>
      </trkpt>
      <trkpt lat="46.46158" lon="-0.80924">
        <ele>7</ele>
        <time>2015-10-26T10:52:00Z</time>
      </trkpt>
      <trkpt lat="46.46155" lon="-0.8095">
        <ele>7</ele>
        <time>2015-10-26T10:52:11Z</time>
      </trkpt>
      <trkpt lat="46.4615" lon="-0.80978">
        <ele>7</ele>
        <time>2015-10-26T10:52:23Z</time>
      </trkpt>
      <trkpt lat="46.4615" lon="-0.81004">
        <ele>7</ele>
        <time>2015-10-26T10:52:35Z</time>
      </trkpt>
      <trkpt lat="46.46154" lon="-0.81031">
        <ele>7</ele>
        <time>2015-10-26T10:52:48Z</time>
      </trkpt>
      <trkpt lat="46.46155" lon="-0.81035">
        <ele>7</ele>
        <time>2015-10-26T10:52:50Z</time>
      </trkpt>
      <trkpt lat="46.46169" lon="-0.81052">
        <ele>7</ele>
        <time>2015-10-26T10:53:02Z</time>
      </trkpt>
      <trkpt lat="46.46181" lon="-0.81073">
        <ele>7.3</ele>
        <time>2015-10-26T10:53:15Z</time>
      </trkpt>
      <trkpt lat="46.46196" lon="-0.81092">
        <ele>8</ele>
        <time>2015-10-26T10:53:28Z</time>
      </trkpt>
      <trkpt lat="46.4621" lon="-0.81108">
        <ele>8</ele>
        <time>2015-10-26T10:53:43Z</time>
      </trkpt>
      <trkpt lat="46.4621" lon="-0.81109">
        <ele>8</ele>
        <time>2015-10-26T10:53:44Z</time>
      </trkpt>
    </trkseg>
  </trk>
</gpx>